DAL962 SBGR-MNMG
Flight info
| Callsign | DAL962 |
|---|---|
| Flight time | 6h 35m |
| Altitude | 32000 |
| Route | OMNI GERTU UL201 BUPNA/N0494F340 UL201 ORIBO UP527 DADKA UM549 ANPIX/N0489F360 UM549 TBG UA317 CHILE |
| Aircraft | L101/H-SDFHIWY/S |
Departure
| Time | 2026-05-06 13:47 |
|---|---|
| Airport | São Paulo/Guarulhos–Governor André Franco Montoro International Airport (SBGR) |
Arrival
| Time | 2026-05-06 20:22 |
|---|---|
| Airport | Augusto C. Sandino (Managua) International Airport (MNMG) |
| Time | Latitude | Longitude | Altitude | Speed | Heading |
|---|---|---|---|---|---|
| 2026-05-06 13:14 | -23.42581 | -46.47329 | 2474 ft | 0 kts | 255° |
| 2026-05-06 13:30 | -23.42579 | -46.47320 | 2466 ft | 4 kts | 255° |
| 2026-05-06 13:30 | -23.42572 | -46.47292 | 2469 ft | 4 kts | 255° |
| 2026-05-06 13:30 | -23.42564 | -46.47264 | 2466 ft | 4 kts | 238° |
| 2026-05-06 13:30 | -23.42546 | -46.47246 | 2469 ft | 4 kts | 194° |
| 2026-05-06 13:31 | -23.42524 | -46.47246 | 2466 ft | 1 kts | 163° |
| 2026-05-06 13:31 | -23.42520 | -46.47247 | 2470 ft | 0 kts | 163° |
| 2026-05-06 13:39 | -23.42527 | -46.47245 | 2471 ft | 2 kts | 163° |
| 2026-05-06 13:39 | -23.42549 | -46.47238 | 2470 ft | 4 kts | 163° |
| 2026-05-06 13:40 | -23.42600 | -46.47222 | 2468 ft | 7 kts | 163° |
| 2026-05-06 13:40 | -23.42634 | -46.47211 | 2468 ft | 8 kts | 163° |
| 2026-05-06 13:40 | -23.42694 | -46.47189 | 2473 ft | 10 kts | 151° |
| 2026-05-06 13:40 | -23.42755 | -46.47149 | 2469 ft | 10 kts | 168° |
| 2026-05-06 13:41 | -23.42829 | -46.47127 | 2472 ft | 12 kts | 162° |
| 2026-05-06 13:41 | -23.42912 | -46.47116 | 2473 ft | 12 kts | 207° |
| 2026-05-06 13:41 | -23.42948 | -46.47201 | 2470 ft | 14 kts | 253° |
| 2026-05-06 13:41 | -23.42976 | -46.47305 | 2467 ft | 15 kts | 253° |
| 2026-05-06 13:42 | -23.43008 | -46.47418 | 2467 ft | 16 kts | 253° |
| 2026-05-06 13:42 | -23.43040 | -46.47538 | 2469 ft | 17 kts | 253° |
| 2026-05-06 13:42 | -23.43074 | -46.47666 | 2471 ft | 18 kts | 253° |
| 2026-05-06 13:42 | -23.43110 | -46.47799 | 2467 ft | 19 kts | 253° |
| 2026-05-06 13:43 | -23.43148 | -46.47938 | 2468 ft | 20 kts | 253° |
| 2026-05-06 13:43 | -23.43187 | -46.48082 | 2469 ft | 20 kts | 253° |
| 2026-05-06 13:43 | -23.43226 | -46.48224 | 2472 ft | 14 kts | 253° |
| 2026-05-06 13:43 | -23.43244 | -46.48289 | 2469 ft | 9 kts | 253° |
| 2026-05-06 13:44 | -23.43276 | -46.48342 | 2469 ft | 3 kts | 212° |
| 2026-05-06 13:44 | -23.43277 | -46.48342 | 2469 ft | 0 kts | 211° |
| 2026-05-06 13:44 | -23.43278 | -46.48342 | 2469 ft | 1 kts | 211° |
| 2026-05-06 13:45 | -23.43290 | -46.48348 | 2471 ft | 3 kts | 201° |
| 2026-05-06 13:45 | -23.43360 | -46.48345 | 2471 ft | 8 kts | 166° |
| 2026-05-06 13:45 | -23.43413 | -46.48320 | 2469 ft | 8 kts | 124° |
| 2026-05-06 13:46 | -23.43407 | -46.48259 | 2468 ft | 9 kts | 74° |
| 2026-05-06 13:46 | -23.43368 | -46.48115 | 2470 ft | 43 kts | 74° |
| 2026-05-06 13:46 | -23.43218 | -46.47551 | 2468 ft | 111 kts | 77° |
| 2026-05-06 13:46 | -23.42937 | -46.46523 | 2477 ft | 170 kts | 74° |
| 2026-05-06 13:47 | -23.42598 | -46.45202 | 3080 ft | 185 kts | 73° |
| 2026-05-06 13:47 | -23.42236 | -46.43899 | 4082 ft | 178 kts | 70° |
| 2026-05-06 13:47 | -23.41460 | -46.42753 | 4605 ft | 205 kts | 41° |
| 2026-05-06 13:47 | -23.40102 | -46.41994 | 5022 ft | 240 kts | 19° |
| 2026-05-06 13:48 | -23.38372 | -46.41844 | 5764 ft | 257 kts | 354° |
| 2026-05-06 13:48 | -23.36683 | -46.42499 | 6686 ft | 268 kts | 331° |
| 2026-05-06 13:48 | -23.35080 | -46.43823 | 7041 ft | 309 kts | 319° |
| 2026-05-06 13:48 | -23.33528 | -46.45473 | 8184 ft | 309 kts | 315° |
| 2026-05-06 13:49 | -23.32101 | -46.47117 | 9787 ft | 285 kts | 314° |
| 2026-05-06 13:49 | -23.30812 | -46.48672 | 10905 ft | 272 kts | 313° |
| 2026-05-06 13:49 | -23.29547 | -46.50226 | 11463 ft | 281 kts | 312° |
| 2026-05-06 13:49 | -23.28233 | -46.51860 | 11855 ft | 293 kts | 312° |
| 2026-05-06 13:50 | -23.26849 | -46.53577 | 12094 ft | 311 kts | 312° |
| 2026-05-06 13:50 | -23.25380 | -46.55395 | 12341 ft | 328 kts | 312° |
| 2026-05-06 13:50 | -23.23832 | -46.57309 | 12578 ft | 346 kts | 312° |
| 2026-05-06 13:50 | -23.22205 | -46.59322 | 12821 ft | 362 kts | 311° |
| 2026-05-06 13:51 | -23.20510 | -46.61425 | 13058 ft | 377 kts | 311° |
| 2026-05-06 13:51 | -23.18751 | -46.63610 | 13275 ft | 391 kts | 311° |
| 2026-05-06 13:51 | -23.16931 | -46.65866 | 13521 ft | 404 kts | 311° |
| 2026-05-06 13:51 | -23.15058 | -46.68187 | 13884 ft | 412 kts | 311° |
| 2026-05-06 13:52 | -23.13155 | -46.70542 | 14420 ft | 415 kts | 311° |
| 2026-05-06 13:52 | -23.11281 | -46.72852 | 15178 ft | 411 kts | 311° |
| 2026-05-06 13:52 | -23.09402 | -46.75164 | 15991 ft | 407 kts | 311° |
| 2026-05-06 13:52 | -23.07522 | -46.77479 | 16489 ft | 413 kts | 310° |
| 2026-05-06 13:53 | -23.05603 | -46.79844 | 16836 ft | 421 kts | 310° |
| 2026-05-06 13:53 | -23.03647 | -46.82258 | 17210 ft | 430 kts | 310° |
| 2026-05-06 13:53 | -23.01664 | -46.84707 | 17776 ft | 432 kts | 310° |
| 2026-05-06 13:53 | -22.99678 | -46.87154 | 18551 ft | 430 kts | 310° |
| 2026-05-06 13:54 | -22.97710 | -46.89574 | 19345 ft | 426 kts | 310° |
| 2026-05-06 13:54 | -22.95742 | -46.91989 | 19865 ft | 430 kts | 310° |
| 2026-05-06 13:54 | -22.93743 | -46.94445 | 20200 ft | 439 kts | 310° |
| 2026-05-06 13:54 | -22.91702 | -46.96954 | 20520 ft | 448 kts | 310° |
| 2026-05-06 13:55 | -22.89630 | -46.99501 | 21012 ft | 452 kts | 309° |
| 2026-05-06 13:55 | -22.87548 | -47.02057 | 21728 ft | 451 kts | 309° |
| 2026-05-06 13:55 | -22.85483 | -47.04590 | 22571 ft | 446 kts | 309° |
| 2026-05-06 13:55 | -22.83425 | -47.07112 | 23248 ft | 449 kts | 309° |
| 2026-05-06 13:56 | -22.81336 | -47.09673 | 23592 ft | 458 kts | 309° |
| 2026-05-06 13:56 | -22.79203 | -47.12290 | 23877 ft | 469 kts | 309° |
| 2026-05-06 13:56 | -22.77029 | -47.14956 | 24236 ft | 476 kts | 308° |
| 2026-05-06 13:56 | -22.74829 | -47.17649 | 24815 ft | 477 kts | 308° |
| 2026-05-06 13:57 | -22.72633 | -47.20330 | 25579 ft | 474 kts | 308° |
| 2026-05-06 13:57 | -22.70445 | -47.22993 | 26272 ft | 474 kts | 308° |
| 2026-05-06 13:57 | -22.68241 | -47.25678 | 26632 ft | 482 kts | 307° |
| 2026-05-06 13:57 | -22.65992 | -47.28423 | 26880 ft | 492 kts | 307° |
| 2026-05-06 13:58 | -22.63699 | -47.31223 | 27148 ft | 501 kts | 307° |
| 2026-05-06 13:58 | -22.61375 | -47.34052 | 27661 ft | 504 kts | 307° |
| 2026-05-06 13:58 | -22.59047 | -47.36876 | 28367 ft | 502 kts | 307° |
| 2026-05-06 13:58 | -22.56757 | -47.39642 | 29167 ft | 499 kts | 306° |
| 2026-05-06 13:59 | -22.54433 | -47.42446 | 29572 ft | 504 kts | 306° |
| 2026-05-06 13:59 | -22.52072 | -47.45301 | 29674 ft | 515 kts | 306° |
| 2026-05-06 13:59 | -22.49663 | -47.48220 | 29785 ft | 525 kts | 306° |
| 2026-05-06 13:59 | -22.47218 | -47.51175 | 30088 ft | 528 kts | 306° |
| 2026-05-06 14:00 | -22.44764 | -47.54119 | 30554 ft | 526 kts | 306° |
| 2026-05-06 14:00 | -22.42279 | -47.57031 | 31019 ft | 527 kts | 307° |
| 2026-05-06 14:00 | -22.39738 | -47.59881 | 31484 ft | 527 kts | 308° |
| 2026-05-06 14:00 | -22.37167 | -47.62707 | 31883 ft | 527 kts | 308° |
| 2026-05-06 14:01 | -22.34616 | -47.65520 | 32042 ft | 520 kts | 307° |
| 2026-05-06 14:01 | -22.32109 | -47.68310 | 32139 ft | 516 kts | 307° |
| 2026-05-06 14:01 | -22.27144 | -47.73869 | 32188 ft | 513 kts | 307° |
| 2026-05-06 14:02 | -22.22187 | -47.79408 | 32200 ft | 513 kts | 307° |
| 2026-05-06 14:02 | -22.17214 | -47.84943 | 32195 ft | 513 kts | 307° |
| 2026-05-06 14:03 | -22.12249 | -47.90465 | 32196 ft | 513 kts | 307° |
| 2026-05-06 14:03 | -22.07284 | -47.95982 | 32188 ft | 513 kts | 307° |
| 2026-05-06 14:04 | -22.02312 | -48.01503 | 32181 ft | 513 kts | 307° |
| 2026-05-06 14:04 | -21.97341 | -48.07014 | 32182 ft | 512 kts | 307° |
| 2026-05-06 14:05 | -21.92377 | -48.12510 | 32180 ft | 511 kts | 307° |
| 2026-05-06 14:05 | -21.87418 | -48.17999 | 32182 ft | 511 kts | 307° |
| 2026-05-06 14:06 | -21.82441 | -48.23481 | 32179 ft | 512 kts | 308° |
| 2026-05-06 14:06 | -21.77458 | -48.28943 | 32181 ft | 511 kts | 308° |
| 2026-05-06 14:07 | -21.72718 | -48.34161 | 32172 ft | 511 kts | 308° |
| 2026-05-06 14:07 | -21.67784 | -48.39596 | 32173 ft | 511 kts | 307° |
| 2026-05-06 14:08 | -21.62816 | -48.45064 | 32174 ft | 511 kts | 308° |
| 2026-05-06 14:08 | -21.57846 | -48.50526 | 32173 ft | 511 kts | 308° |
| 2026-05-06 14:09 | -21.52879 | -48.55980 | 32170 ft | 510 kts | 308° |
| 2026-05-06 14:09 | -21.47907 | -48.61436 | 32171 ft | 511 kts | 308° |
| 2026-05-06 14:10 | -21.42933 | -48.66886 | 32170 ft | 511 kts | 308° |
| 2026-05-06 14:10 | -21.37957 | -48.72331 | 32168 ft | 511 kts | 308° |
| 2026-05-06 14:11 | -21.32985 | -48.77769 | 32165 ft | 511 kts | 308° |
| 2026-05-06 14:11 | -21.28006 | -48.83209 | 32167 ft | 511 kts | 308° |
| 2026-05-06 14:12 | -21.23020 | -48.88650 | 32165 ft | 511 kts | 308° |
| 2026-05-06 14:12 | -21.18070 | -48.94048 | 32162 ft | 512 kts | 308° |
| 2026-05-06 14:13 | -21.13064 | -48.99469 | 32154 ft | 512 kts | 308° |
| 2026-05-06 14:13 | -21.08061 | -49.04903 | 32160 ft | 512 kts | 308° |
| 2026-05-06 14:14 | -21.03072 | -49.10335 | 32158 ft | 511 kts | 308° |
| 2026-05-06 14:14 | -20.98086 | -49.15759 | 32179 ft | 511 kts | 308° |
| 2026-05-06 14:15 | -20.93098 | -49.21181 | 32212 ft | 511 kts | 308° |
| 2026-05-06 14:15 | -20.88106 | -49.26603 | 32216 ft | 511 kts | 308° |
| 2026-05-06 14:16 | -20.83116 | -49.32017 | 32242 ft | 511 kts | 308° |
| 2026-05-06 14:16 | -20.78121 | -49.37431 | 32224 ft | 511 kts | 308° |
| 2026-05-06 14:17 | -20.73130 | -49.42834 | 32235 ft | 511 kts | 308° |
| 2026-05-06 14:17 | -20.68129 | -49.48243 | 32216 ft | 512 kts | 308° |
| 2026-05-06 14:18 | -20.63125 | -49.53650 | 32201 ft | 512 kts | 308° |
| 2026-05-06 14:18 | -20.58124 | -49.59048 | 32175 ft | 511 kts | 308° |
| 2026-05-06 14:19 | -20.53123 | -49.64442 | 32162 ft | 511 kts | 308° |
| 2026-05-06 14:19 | -20.48149 | -49.69802 | 32159 ft | 512 kts | 308° |
| 2026-05-06 14:20 | -20.43144 | -49.75188 | 32155 ft | 512 kts | 308° |
| 2026-05-06 14:20 | -20.38136 | -49.80572 | 32151 ft | 511 kts | 308° |
| 2026-05-06 14:21 | -20.33133 | -49.85949 | 32155 ft | 511 kts | 308° |
| 2026-05-06 14:21 | -20.28118 | -49.91332 | 32157 ft | 512 kts | 308° |
| 2026-05-06 14:22 | -20.23099 | -49.96710 | 32153 ft | 512 kts | 308° |
| 2026-05-06 14:22 | -20.18084 | -50.02082 | 32139 ft | 511 kts | 308° |
| 2026-05-06 14:23 | -20.13068 | -50.07451 | 32148 ft | 512 kts | 308° |
| 2026-05-06 14:23 | -20.08047 | -50.12817 | 32146 ft | 512 kts | 308° |
| 2026-05-06 14:24 | -20.03019 | -50.18186 | 32143 ft | 512 kts | 308° |
| 2026-05-06 14:24 | -19.98844 | -50.22638 | 32140 ft | 512 kts | 309° |
| 2026-05-06 14:25 | -19.92967 | -50.28830 | 32141 ft | 512 kts | 309° |
| 2026-05-06 14:25 | -19.87921 | -50.34157 | 32140 ft | 512 kts | 309° |
| 2026-05-06 14:26 | -19.82892 | -50.39501 | 32139 ft | 511 kts | 309° |
| 2026-05-06 14:26 | -19.78711 | -50.43942 | 32134 ft | 511 kts | 309° |
| 2026-05-06 14:27 | -19.73684 | -50.49277 | 32140 ft | 511 kts | 309° |
| 2026-05-06 14:27 | -19.68653 | -50.54611 | 32138 ft | 511 kts | 309° |
| 2026-05-06 14:28 | -19.63522 | -50.59850 | 32130 ft | 513 kts | 311° |
| 2026-05-06 14:28 | -19.58226 | -50.64937 | 32131 ft | 513 kts | 311° |
| 2026-05-06 14:29 | -19.52964 | -50.70056 | 32131 ft | 513 kts | 311° |
| 2026-05-06 14:29 | -19.47703 | -50.75174 | 32130 ft | 513 kts | 312° |
| 2026-05-06 14:30 | -19.42438 | -50.80276 | 32133 ft | 513 kts | 312° |
| 2026-05-06 14:30 | -19.37161 | -50.85390 | 32136 ft | 513 kts | 312° |
| 2026-05-06 14:31 | -19.31892 | -50.90493 | 32126 ft | 513 kts | 312° |
| 2026-05-06 14:31 | -19.26622 | -50.95588 | 32130 ft | 513 kts | 312° |
| 2026-05-06 14:32 | -19.21352 | -51.00680 | 32133 ft | 513 kts | 312° |
| 2026-05-06 14:32 | -19.16117 | -51.05733 | 32132 ft | 513 kts | 312° |
| 2026-05-06 14:33 | -19.10845 | -51.10819 | 32131 ft | 513 kts | 313° |
| 2026-05-06 14:33 | -19.05557 | -51.15896 | 32130 ft | 514 kts | 313° |
| 2026-05-06 14:34 | -19.00272 | -51.20972 | 32128 ft | 514 kts | 313° |
| 2026-05-06 14:34 | -18.94991 | -51.26056 | 32129 ft | 513 kts | 313° |
| 2026-05-06 14:35 | -18.89670 | -51.31174 | 32131 ft | 514 kts | 313° |
| 2026-05-06 14:35 | -18.84414 | -51.36226 | 32128 ft | 514 kts | 313° |
| 2026-05-06 14:36 | -18.79124 | -51.41305 | 32132 ft | 514 kts | 313° |
| 2026-05-06 14:36 | -18.73834 | -51.46380 | 32135 ft | 514 kts | 313° |
| 2026-05-06 14:37 | -18.68541 | -51.51456 | 32133 ft | 514 kts | 313° |
| 2026-05-06 14:37 | -18.63245 | -51.56528 | 32133 ft | 515 kts | 313° |
| 2026-05-06 14:38 | -18.57945 | -51.61600 | 32137 ft | 514 kts | 313° |
| 2026-05-06 14:38 | -18.52650 | -51.66662 | 32137 ft | 514 kts | 313° |
| 2026-05-06 14:39 | -18.47356 | -51.71720 | 32137 ft | 514 kts | 313° |
| 2026-05-06 14:39 | -18.42044 | -51.76775 | 32144 ft | 514 kts | 314° |
| 2026-05-06 14:40 | -18.36726 | -51.81810 | 32135 ft | 514 kts | 314° |
| 2026-05-06 14:40 | -18.31458 | -51.86815 | 32140 ft | 513 kts | 314° |
| 2026-05-06 14:41 | -18.26160 | -51.91851 | 32143 ft | 513 kts | 314° |
| 2026-05-06 14:41 | -18.20854 | -51.96892 | 32141 ft | 514 kts | 314° |
| 2026-05-06 14:42 | -18.15545 | -52.01930 | 32141 ft | 514 kts | 314° |
| 2026-05-06 14:42 | -18.10238 | -52.06963 | 32144 ft | 514 kts | 314° |
| 2026-05-06 14:43 | -18.04931 | -52.11992 | 32138 ft | 513 kts | 314° |
| 2026-05-06 14:43 | -17.99627 | -52.17023 | 32140 ft | 514 kts | 314° |
| 2026-05-06 14:44 | -17.94385 | -52.22121 | 32138 ft | 513 kts | 313° |
| 2026-05-06 14:45 | -17.86538 | -52.29783 | 32141 ft | 513 kts | 314° |
| 2026-05-06 14:45 | -17.81309 | -52.34884 | 32139 ft | 513 kts | 314° |
| 2026-05-06 14:46 | -17.76089 | -52.39977 | 32135 ft | 512 kts | 314° |
| 2026-05-06 14:46 | -17.70899 | -52.45035 | 32137 ft | 513 kts | 314° |
| 2026-05-06 14:47 | -17.65677 | -52.50123 | 32142 ft | 513 kts | 314° |
| 2026-05-06 14:47 | -17.60453 | -52.55209 | 32132 ft | 512 kts | 314° |
| 2026-05-06 14:48 | -17.55229 | -52.60287 | 32133 ft | 512 kts | 314° |
| 2026-05-06 14:48 | -17.50013 | -52.65354 | 32137 ft | 511 kts | 314° |
| 2026-05-06 14:49 | -17.44799 | -52.70415 | 32136 ft | 511 kts | 314° |
| 2026-05-06 14:49 | -17.39579 | -52.75479 | 32141 ft | 511 kts | 314° |
| 2026-05-06 14:50 | -17.34357 | -52.80541 | 32129 ft | 511 kts | 314° |
| 2026-05-06 14:50 | -17.29140 | -52.85588 | 32133 ft | 511 kts | 314° |
| 2026-05-06 14:51 | -17.23954 | -52.90606 | 32136 ft | 511 kts | 314° |
| 2026-05-06 14:51 | -17.18732 | -52.95659 | 32134 ft | 511 kts | 314° |
| 2026-05-06 14:52 | -17.13507 | -53.00707 | 32125 ft | 511 kts | 314° |
| 2026-05-06 14:52 | -17.08278 | -53.05754 | 32128 ft | 512 kts | 314° |
| 2026-05-06 14:53 | -17.03053 | -53.10794 | 32127 ft | 511 kts | 314° |
| 2026-05-06 14:53 | -16.97822 | -53.15835 | 32127 ft | 511 kts | 314° |
| 2026-05-06 14:54 | -16.92595 | -53.20869 | 32128 ft | 511 kts | 314° |
| 2026-05-06 14:54 | -16.87360 | -53.25906 | 32124 ft | 512 kts | 314° |
| 2026-05-06 14:55 | -16.82058 | -53.30862 | 32121 ft | 512 kts | 315° |
| 2026-05-06 14:55 | -16.76842 | -53.35904 | 32116 ft | 511 kts | 314° |
| 2026-05-06 14:56 | -16.71705 | -53.40959 | 32125 ft | 511 kts | 314° |
| 2026-05-06 14:56 | -16.66459 | -53.46030 | 32113 ft | 511 kts | 314° |
| 2026-05-06 14:57 | -16.61236 | -53.51077 | 32118 ft | 512 kts | 314° |
| 2026-05-06 14:57 | -16.56052 | -53.56085 | 32110 ft | 512 kts | 314° |
| 2026-05-06 14:58 | -16.50822 | -53.61123 | 32108 ft | 512 kts | 315° |
| 2026-05-06 14:58 | -16.45554 | -53.66118 | 32109 ft | 512 kts | 315° |
| 2026-05-06 14:59 | -16.40285 | -53.71114 | 32104 ft | 512 kts | 315° |
| 2026-05-06 14:59 | -16.35019 | -53.76117 | 32099 ft | 512 kts | 315° |
| 2026-05-06 15:00 | -16.29752 | -53.81108 | 32092 ft | 512 kts | 315° |
| 2026-05-06 15:00 | -16.24484 | -53.86089 | 32090 ft | 512 kts | 315° |
| 2026-05-06 15:01 | -16.19219 | -53.91076 | 32110 ft | 512 kts | 315° |
| 2026-05-06 15:01 | -16.13949 | -53.96063 | 32088 ft | 512 kts | 315° |
| 2026-05-06 15:02 | -16.08675 | -54.01049 | 32094 ft | 512 kts | 315° |
| 2026-05-06 15:02 | -16.03405 | -54.06028 | 32086 ft | 512 kts | 315° |
| 2026-05-06 15:03 | -15.98136 | -54.11003 | 32082 ft | 512 kts | 315° |
| 2026-05-06 15:03 | -15.92728 | -54.15826 | 32092 ft | 513 kts | 319° |
| 2026-05-06 15:04 | -15.87201 | -54.20524 | 32102 ft | 513 kts | 318° |
| 2026-05-06 15:04 | -15.81712 | -54.25260 | 32102 ft | 513 kts | 318° |
| 2026-05-06 15:05 | -15.76215 | -54.29986 | 32086 ft | 513 kts | 318° |
| 2026-05-06 15:05 | -15.70722 | -54.34695 | 32089 ft | 513 kts | 318° |
| 2026-05-06 15:06 | -15.65259 | -54.39377 | 32087 ft | 513 kts | 318° |
| 2026-05-06 15:06 | -15.59757 | -54.44089 | 32090 ft | 513 kts | 318° |
| 2026-05-06 15:07 | -15.54254 | -54.48798 | 32098 ft | 513 kts | 319° |
| 2026-05-06 15:07 | -15.48753 | -54.53502 | 32103 ft | 512 kts | 319° |
| 2026-05-06 15:08 | -15.43252 | -54.58201 | 32097 ft | 512 kts | 319° |
| 2026-05-06 15:08 | -15.37752 | -54.62897 | 32097 ft | 512 kts | 319° |
| 2026-05-06 15:09 | -15.32245 | -54.67594 | 32086 ft | 512 kts | 319° |
| 2026-05-06 15:09 | -15.26743 | -54.72286 | 32083 ft | 512 kts | 319° |
| 2026-05-06 15:10 | -15.21241 | -54.76974 | 32098 ft | 512 kts | 319° |
| 2026-05-06 15:10 | -15.15738 | -54.81659 | 32098 ft | 512 kts | 319° |
| 2026-05-06 15:11 | -15.10234 | -54.86343 | 32081 ft | 512 kts | 319° |
| 2026-05-06 15:11 | -15.04730 | -54.91022 | 32094 ft | 512 kts | 319° |
| 2026-05-06 15:12 | -14.99229 | -54.95697 | 32088 ft | 512 kts | 319° |
| 2026-05-06 15:12 | -14.93720 | -55.00373 | 32084 ft | 512 kts | 319° |
| 2026-05-06 15:13 | -14.88253 | -55.05013 | 32082 ft | 513 kts | 319° |
| 2026-05-06 15:13 | -14.82831 | -55.09803 | 32078 ft | 512 kts | 317° |
| 2026-05-06 15:14 | -14.77473 | -55.14646 | 32078 ft | 511 kts | 317° |
| 2026-05-06 15:14 | -14.72108 | -55.19471 | 32072 ft | 512 kts | 317° |
| 2026-05-06 15:15 | -14.66752 | -55.24303 | 32071 ft | 511 kts | 317° |
| 2026-05-06 15:15 | -14.61396 | -55.29134 | 32068 ft | 511 kts | 317° |
| 2026-05-06 15:16 | -14.56046 | -55.33956 | 32068 ft | 510 kts | 317° |
| 2026-05-06 15:16 | -14.50698 | -55.38775 | 32066 ft | 510 kts | 317° |
| 2026-05-06 15:17 | -14.46250 | -55.42781 | 32066 ft | 510 kts | 317° |
| 2026-05-06 15:17 | -14.40896 | -55.47601 | 32063 ft | 511 kts | 317° |
| 2026-05-06 15:18 | -14.35543 | -55.52415 | 32062 ft | 511 kts | 317° |
| 2026-05-06 15:18 | -14.30184 | -55.57232 | 32063 ft | 511 kts | 317° |
| 2026-05-06 15:19 | -14.24827 | -55.62045 | 32059 ft | 511 kts | 317° |
| 2026-05-06 15:19 | -14.19555 | -55.66954 | 32059 ft | 510 kts | 314° |
| 2026-05-06 15:20 | -14.14487 | -55.72071 | 32054 ft | 511 kts | 314° |
| 2026-05-06 15:20 | -14.09385 | -55.77167 | 32055 ft | 511 kts | 314° |
| 2026-05-06 15:21 | -14.04284 | -55.82261 | 32053 ft | 510 kts | 314° |
| 2026-05-06 15:21 | -13.99196 | -55.87360 | 32052 ft | 510 kts | 314° |
| 2026-05-06 15:22 | -13.94141 | -55.92422 | 32049 ft | 511 kts | 314° |
| 2026-05-06 15:22 | -13.89046 | -55.97521 | 32051 ft | 511 kts | 314° |
| 2026-05-06 15:23 | -13.83950 | -56.02618 | 32044 ft | 511 kts | 314° |
| 2026-05-06 15:23 | -13.78849 | -56.07717 | 32043 ft | 511 kts | 314° |
| 2026-05-06 15:24 | -13.73747 | -56.12810 | 32051 ft | 511 kts | 314° |
| 2026-05-06 15:24 | -13.68639 | -56.17894 | 32043 ft | 511 kts | 314° |
| 2026-05-06 15:25 | -13.63528 | -56.22983 | 32047 ft | 512 kts | 314° |
| 2026-05-06 15:25 | -13.58418 | -56.28077 | 32048 ft | 512 kts | 314° |
| 2026-05-06 15:26 | -13.53309 | -56.33167 | 32042 ft | 512 kts | 315° |
| 2026-05-06 15:26 | -13.48236 | -56.38219 | 32041 ft | 511 kts | 315° |
| 2026-05-06 15:27 | -13.43125 | -56.43304 | 32039 ft | 511 kts | 315° |
| 2026-05-06 15:27 | -13.38011 | -56.48391 | 32040 ft | 512 kts | 315° |
| 2026-05-06 15:28 | -13.32897 | -56.53472 | 32040 ft | 512 kts | 315° |
| 2026-05-06 15:28 | -13.27780 | -56.58554 | 32039 ft | 512 kts | 315° |
| 2026-05-06 15:29 | -13.22666 | -56.63630 | 32037 ft | 511 kts | 315° |
| 2026-05-06 15:29 | -13.17555 | -56.68702 | 32039 ft | 511 kts | 315° |
| 2026-05-06 15:30 | -13.12440 | -56.73774 | 32039 ft | 511 kts | 315° |
| 2026-05-06 15:30 | -13.07324 | -56.78842 | 32039 ft | 511 kts | 315° |
| 2026-05-06 15:31 | -13.02207 | -56.83909 | 32037 ft | 511 kts | 315° |
| 2026-05-06 15:31 | -12.97093 | -56.88970 | 32040 ft | 511 kts | 315° |
| 2026-05-06 15:32 | -12.89421 | -56.96557 | 32038 ft | 511 kts | 315° |
| 2026-05-06 15:32 | -12.84308 | -57.01610 | 32038 ft | 511 kts | 315° |
| 2026-05-06 15:33 | -12.79192 | -57.06663 | 32036 ft | 511 kts | 315° |
| 2026-05-06 15:33 | -12.74076 | -57.11712 | 32033 ft | 511 kts | 315° |
| 2026-05-06 15:34 | -12.68962 | -57.16753 | 32035 ft | 510 kts | 315° |
| 2026-05-06 15:34 | -12.63869 | -57.21742 | 32040 ft | 510 kts | 315° |
| 2026-05-06 15:35 | -12.58748 | -57.26768 | 32036 ft | 510 kts | 315° |
| 2026-05-06 15:35 | -12.53635 | -57.31800 | 32035 ft | 510 kts | 315° |
| 2026-05-06 15:36 | -12.48515 | -57.36838 | 32036 ft | 511 kts | 315° |
| 2026-05-06 15:36 | -12.43398 | -57.41874 | 32032 ft | 510 kts | 315° |
| 2026-05-06 15:37 | -12.38281 | -57.46903 | 32033 ft | 511 kts | 315° |
| 2026-05-06 15:37 | -12.33158 | -57.51939 | 32037 ft | 510 kts | 315° |
| 2026-05-06 15:38 | -12.28039 | -57.56964 | 32037 ft | 511 kts | 315° |
| 2026-05-06 15:38 | -12.22910 | -57.61993 | 32035 ft | 511 kts | 316° |
| 2026-05-06 15:39 | -12.17772 | -57.67018 | 32034 ft | 511 kts | 316° |
| 2026-05-06 15:39 | -12.12633 | -57.72049 | 32033 ft | 511 kts | 316° |
| 2026-05-06 15:40 | -12.07502 | -57.77075 | 32034 ft | 510 kts | 316° |
| 2026-05-06 15:40 | -12.02383 | -57.82084 | 32036 ft | 510 kts | 316° |
| 2026-05-06 15:41 | -11.97254 | -57.87101 | 32030 ft | 511 kts | 316° |
| 2026-05-06 15:41 | -11.92157 | -57.92086 | 32029 ft | 510 kts | 316° |
| 2026-05-06 15:42 | -11.87041 | -57.97087 | 32033 ft | 508 kts | 316° |
| 2026-05-06 15:42 | -11.81933 | -58.02075 | 32034 ft | 508 kts | 316° |
| 2026-05-06 15:43 | -11.76815 | -58.07072 | 32031 ft | 509 kts | 316° |
| 2026-05-06 15:43 | -11.71687 | -58.12074 | 32027 ft | 510 kts | 316° |
| 2026-05-06 15:44 | -11.66563 | -58.17073 | 32034 ft | 509 kts | 316° |
| 2026-05-06 15:44 | -11.61436 | -58.22068 | 32032 ft | 510 kts | 316° |
| 2026-05-06 15:45 | -11.56294 | -58.27078 | 32030 ft | 511 kts | 316° |
| 2026-05-06 15:45 | -11.51151 | -58.32086 | 32033 ft | 511 kts | 316° |
| 2026-05-06 15:46 | -11.46011 | -58.37087 | 32028 ft | 511 kts | 316° |
| 2026-05-06 15:46 | -11.40885 | -58.42074 | 32031 ft | 509 kts | 316° |
| 2026-05-06 15:47 | -11.35750 | -58.47065 | 32035 ft | 511 kts | 316° |
| 2026-05-06 15:47 | -11.30614 | -58.52056 | 32031 ft | 510 kts | 316° |
| 2026-05-06 15:48 | -11.25481 | -58.57039 | 32036 ft | 509 kts | 316° |
| 2026-05-06 15:48 | -11.20389 | -58.61982 | 32036 ft | 509 kts | 316° |
| 2026-05-06 15:49 | -11.15250 | -58.66966 | 32033 ft | 511 kts | 316° |
| 2026-05-06 15:49 | -11.10105 | -58.71955 | 32032 ft | 511 kts | 316° |
| 2026-05-06 15:50 | -11.04964 | -58.76938 | 32041 ft | 510 kts | 316° |
| 2026-05-06 15:50 | -10.99814 | -58.81925 | 32037 ft | 511 kts | 316° |
| 2026-05-06 15:51 | -10.94657 | -58.86918 | 32034 ft | 512 kts | 317° |
| 2026-05-06 15:51 | -10.89504 | -58.91905 | 32035 ft | 510 kts | 317° |
| 2026-05-06 15:52 | -10.84362 | -58.96877 | 32036 ft | 510 kts | 317° |
| 2026-05-06 15:52 | -10.79223 | -59.01844 | 32035 ft | 510 kts | 317° |
| 2026-05-06 15:53 | -10.74114 | -59.06781 | 32026 ft | 509 kts | 316° |
| 2026-05-06 15:53 | -10.68981 | -59.11739 | 32033 ft | 509 kts | 316° |
| 2026-05-06 15:54 | -10.63852 | -59.16689 | 32035 ft | 509 kts | 316° |
| 2026-05-06 15:54 | -10.58727 | -59.21633 | 32047 ft | 508 kts | 317° |
| 2026-05-06 15:55 | -10.53587 | -59.26589 | 32030 ft | 509 kts | 316° |
| 2026-05-06 15:55 | -10.48561 | -59.31627 | 32034 ft | 508 kts | 316° |
| 2026-05-06 15:56 | -10.43431 | -59.36596 | 32017 ft | 510 kts | 316° |
| 2026-05-06 15:56 | -10.38287 | -59.41566 | 32020 ft | 511 kts | 316° |
| 2026-05-06 15:57 | -10.33147 | -59.46545 | 32029 ft | 510 kts | 316° |
| 2026-05-06 15:57 | -10.28022 | -59.51504 | 32017 ft | 508 kts | 316° |
| 2026-05-06 15:58 | -10.22903 | -59.56454 | 32021 ft | 509 kts | 316° |
| 2026-05-06 15:58 | -10.17782 | -59.61405 | 32013 ft | 508 kts | 316° |
| 2026-05-06 15:59 | -10.12674 | -59.66341 | 32016 ft | 506 kts | 316° |
| 2026-05-06 15:59 | -10.07569 | -59.71271 | 32014 ft | 507 kts | 316° |
| 2026-05-06 16:00 | -10.02448 | -59.76213 | 32025 ft | 509 kts | 316° |
| 2026-05-06 16:00 | -9.97313 | -59.81169 | 32014 ft | 509 kts | 316° |
| 2026-05-06 16:01 | -9.92188 | -59.86111 | 32017 ft | 509 kts | 316° |
| 2026-05-06 16:01 | -9.87049 | -59.91067 | 32008 ft | 509 kts | 316° |
| 2026-05-06 16:02 | -9.81923 | -59.96008 | 32016 ft | 509 kts | 317° |
| 2026-05-06 16:02 | -9.76786 | -60.00957 | 32007 ft | 508 kts | 316° |
| 2026-05-06 16:03 | -9.71697 | -60.05856 | 32008 ft | 509 kts | 317° |
| 2026-05-06 16:03 | -9.66535 | -60.10825 | 32015 ft | 508 kts | 317° |
| 2026-05-06 16:04 | -9.61409 | -60.15756 | 32014 ft | 507 kts | 316° |
| 2026-05-06 16:04 | -9.56334 | -60.20637 | 32009 ft | 506 kts | 317° |
| 2026-05-06 16:05 | -9.51213 | -60.25561 | 32001 ft | 509 kts | 317° |
| 2026-05-06 16:05 | -9.46076 | -60.30498 | 32011 ft | 509 kts | 317° |
| 2026-05-06 16:06 | -9.40944 | -60.35426 | 32015 ft | 509 kts | 317° |
| 2026-05-06 16:06 | -9.35786 | -60.40378 | 32010 ft | 512 kts | 317° |
| 2026-05-06 16:07 | -9.31497 | -60.44495 | 32013 ft | 511 kts | 317° |
| 2026-05-06 16:07 | -9.26348 | -60.49435 | 32006 ft | 509 kts | 317° |
| 2026-05-06 16:08 | -9.21215 | -60.54359 | 32012 ft | 509 kts | 317° |
| 2026-05-06 16:08 | -9.16083 | -60.59280 | 32010 ft | 507 kts | 317° |
| 2026-05-06 16:09 | -9.10968 | -60.64183 | 32009 ft | 506 kts | 317° |
| 2026-05-06 16:09 | -9.05853 | -60.69084 | 32008 ft | 506 kts | 317° |
| 2026-05-06 16:10 | -9.00730 | -60.73991 | 32012 ft | 508 kts | 317° |
| 2026-05-06 16:10 | -8.95609 | -60.78894 | 32004 ft | 507 kts | 317° |
| 2026-05-06 16:11 | -8.90483 | -60.83801 | 32003 ft | 506 kts | 317° |
| 2026-05-06 16:11 | -8.85371 | -60.88693 | 32007 ft | 506 kts | 317° |
| 2026-05-06 16:12 | -8.80262 | -60.93578 | 32007 ft | 504 kts | 317° |
| 2026-05-06 16:12 | -8.75170 | -60.98450 | 32006 ft | 504 kts | 317° |
| 2026-05-06 16:13 | -8.70099 | -61.03295 | 32006 ft | 504 kts | 317° |
| 2026-05-06 16:13 | -8.65012 | -61.08158 | 32007 ft | 503 kts | 317° |
| 2026-05-06 16:14 | -8.59920 | -61.13026 | 32009 ft | 504 kts | 317° |
| 2026-05-06 16:14 | -8.54818 | -61.17897 | 32003 ft | 506 kts | 317° |
| 2026-05-06 16:15 | -8.49711 | -61.22773 | 32008 ft | 505 kts | 318° |
| 2026-05-06 16:15 | -8.44601 | -61.27652 | 32010 ft | 506 kts | 318° |
| 2026-05-06 16:16 | -8.39487 | -61.32532 | 32009 ft | 505 kts | 318° |
| 2026-05-06 16:16 | -8.34380 | -61.37420 | 32013 ft | 505 kts | 317° |
| 2026-05-06 16:17 | -8.29423 | -61.42440 | 32014 ft | 505 kts | 316° |
| 2026-05-06 16:17 | -8.24403 | -61.47409 | 32007 ft | 505 kts | 317° |
| 2026-05-06 16:18 | -8.19315 | -61.52286 | 32013 ft | 504 kts | 317° |
| 2026-05-06 16:18 | -8.14231 | -61.57154 | 32011 ft | 504 kts | 317° |
| 2026-05-06 16:19 | -8.09134 | -61.62025 | 32010 ft | 505 kts | 317° |
| 2026-05-06 16:19 | -8.04028 | -61.66893 | 32005 ft | 505 kts | 317° |
| 2026-05-06 16:20 | -7.98925 | -61.71760 | 32010 ft | 506 kts | 318° |
| 2026-05-06 16:20 | -7.93809 | -61.76635 | 32009 ft | 506 kts | 317° |
| 2026-05-06 16:21 | -7.88689 | -61.81512 | 32009 ft | 506 kts | 317° |
| 2026-05-06 16:21 | -7.83582 | -61.86376 | 32010 ft | 505 kts | 317° |
| 2026-05-06 16:22 | -7.78504 | -61.91209 | 32005 ft | 505 kts | 317° |
| 2026-05-06 16:22 | -7.73395 | -61.96073 | 32003 ft | 505 kts | 317° |
| 2026-05-06 16:23 | -7.68289 | -62.00931 | 32011 ft | 505 kts | 317° |
| 2026-05-06 16:23 | -7.63182 | -62.05785 | 32004 ft | 505 kts | 317° |
| 2026-05-06 16:24 | -7.58073 | -62.10642 | 32006 ft | 505 kts | 317° |
| 2026-05-06 16:24 | -7.52959 | -62.15502 | 32007 ft | 505 kts | 318° |
| 2026-05-06 16:25 | -7.47842 | -62.20361 | 32003 ft | 505 kts | 318° |
| 2026-05-06 16:25 | -7.42737 | -62.25210 | 32006 ft | 504 kts | 317° |
| 2026-05-06 16:26 | -7.37646 | -62.30043 | 32008 ft | 503 kts | 317° |
| 2026-05-06 16:26 | -7.32557 | -62.34873 | 32003 ft | 502 kts | 317° |
| 2026-05-06 16:27 | -7.27467 | -62.39701 | 32003 ft | 503 kts | 318° |
| 2026-05-06 16:27 | -7.22422 | -62.44485 | 32251 ft | 500 kts | 317° |
| 2026-05-06 16:28 | -7.19893 | -62.46882 | 32508 ft | 500 kts | 317° |
| 2026-05-06 16:28 | -7.17360 | -62.49284 | 32767 ft | 499 kts | 318° |
| 2026-05-06 16:28 | -7.14835 | -62.51676 | 33003 ft | 498 kts | 318° |
| 2026-05-06 16:28 | -7.12318 | -62.54062 | 33257 ft | 496 kts | 318° |
| 2026-05-06 16:29 | -7.09814 | -62.56435 | 33502 ft | 494 kts | 318° |
| 2026-05-06 16:29 | -7.07317 | -62.58799 | 33757 ft | 492 kts | 317° |
| 2026-05-06 16:29 | -7.04827 | -62.61158 | 33926 ft | 492 kts | 317° |
| 2026-05-06 16:29 | -7.02334 | -62.63521 | 33969 ft | 491 kts | 318° |
| 2026-05-06 16:30 | -6.98211 | -62.67426 | 33998 ft | 489 kts | 317° |
| 2026-05-06 16:30 | -6.92409 | -62.72907 | 34002 ft | 490 kts | 317° |
| 2026-05-06 16:31 | -6.87438 | -62.77588 | 33998 ft | 489 kts | 318° |
| 2026-05-06 16:31 | -6.82486 | -62.82265 | 34001 ft | 488 kts | 317° |
| 2026-05-06 16:32 | -6.77560 | -62.86926 | 34001 ft | 490 kts | 318° |
| 2026-05-06 16:32 | -6.72583 | -62.91628 | 34005 ft | 492 kts | 318° |
| 2026-05-06 16:33 | -6.67591 | -62.96348 | 34002 ft | 493 kts | 317° |
| 2026-05-06 16:34 | -6.60100 | -63.03428 | 34004 ft | 493 kts | 317° |
| 2026-05-06 16:34 | -6.55104 | -63.08149 | 33999 ft | 493 kts | 317° |
| 2026-05-06 16:35 | -6.50109 | -63.12867 | 34001 ft | 493 kts | 317° |
| 2026-05-06 16:35 | -6.45102 | -63.17595 | 34005 ft | 495 kts | 317° |
| 2026-05-06 16:36 | -6.40056 | -63.22358 | 34005 ft | 500 kts | 318° |
| 2026-05-06 16:36 | -6.34969 | -63.27156 | 34007 ft | 502 kts | 318° |
| 2026-05-06 16:37 | -6.29878 | -63.31960 | 34006 ft | 502 kts | 318° |
| 2026-05-06 16:37 | -6.24790 | -63.36760 | 34005 ft | 502 kts | 318° |
| 2026-05-06 16:38 | -6.19697 | -63.41561 | 34007 ft | 501 kts | 317° |
| 2026-05-06 16:38 | -6.14616 | -63.46348 | 34000 ft | 500 kts | 317° |
| 2026-05-06 16:39 | -6.09561 | -63.51115 | 34007 ft | 497 kts | 318° |
| 2026-05-06 16:39 | -6.04513 | -63.55860 | 34005 ft | 497 kts | 318° |
| 2026-05-06 16:40 | -5.99459 | -63.60608 | 34003 ft | 497 kts | 318° |
| 2026-05-06 16:40 | -5.94445 | -63.65332 | 34004 ft | 497 kts | 318° |
| 2026-05-06 16:41 | -5.89398 | -63.70084 | 34004 ft | 497 kts | 318° |
| 2026-05-06 16:41 | -5.84349 | -63.74836 | 33994 ft | 497 kts | 318° |
| 2026-05-06 16:42 | -5.79297 | -63.79590 | 33998 ft | 498 kts | 318° |
| 2026-05-06 16:42 | -5.74224 | -63.84362 | 34002 ft | 501 kts | 318° |
| 2026-05-06 16:43 | -5.69140 | -63.89144 | 33996 ft | 501 kts | 318° |
| 2026-05-06 16:43 | -5.64048 | -63.93931 | 33998 ft | 501 kts | 318° |
| 2026-05-06 16:44 | -5.58958 | -63.98717 | 34003 ft | 501 kts | 318° |
| 2026-05-06 16:44 | -5.53868 | -64.03502 | 34000 ft | 501 kts | 318° |
| 2026-05-06 16:45 | -5.48777 | -64.08277 | 34000 ft | 500 kts | 318° |
| 2026-05-06 16:45 | -5.43696 | -64.13036 | 34004 ft | 499 kts | 318° |
| 2026-05-06 16:46 | -5.38627 | -64.17796 | 34004 ft | 499 kts | 318° |
| 2026-05-06 16:46 | -5.33588 | -64.22523 | 34007 ft | 499 kts | 318° |
| 2026-05-06 16:47 | -5.28444 | -64.27202 | 34007 ft | 499 kts | 321° |
| 2026-05-06 16:47 | -5.23173 | -64.31736 | 34004 ft | 499 kts | 320° |
| 2026-05-06 16:48 | -5.17929 | -64.36299 | 34010 ft | 499 kts | 320° |
| 2026-05-06 16:48 | -5.12682 | -64.40854 | 34006 ft | 500 kts | 320° |
| 2026-05-06 16:49 | -5.07396 | -64.45431 | 34005 ft | 503 kts | 320° |
| 2026-05-06 16:49 | -5.02089 | -64.50027 | 34010 ft | 504 kts | 320° |
| 2026-05-06 16:50 | -4.96781 | -64.54621 | 34011 ft | 504 kts | 320° |
| 2026-05-06 16:50 | -4.91476 | -64.59213 | 34009 ft | 504 kts | 320° |
| 2026-05-06 16:51 | -4.86173 | -64.63799 | 34009 ft | 503 kts | 320° |
| 2026-05-06 16:51 | -4.80908 | -64.68353 | 34010 ft | 504 kts | 320° |
| 2026-05-06 16:52 | -4.75592 | -64.72950 | 34010 ft | 505 kts | 320° |
| 2026-05-06 16:52 | -4.70262 | -64.77557 | 34007 ft | 506 kts | 320° |
| 2026-05-06 16:53 | -4.64929 | -64.82167 | 34008 ft | 506 kts | 320° |
| 2026-05-06 16:53 | -4.59598 | -64.86774 | 34007 ft | 506 kts | 320° |
| 2026-05-06 16:54 | -4.54274 | -64.91373 | 34007 ft | 505 kts | 320° |
| 2026-05-06 16:54 | -4.48944 | -64.95977 | 34008 ft | 506 kts | 320° |
| 2026-05-06 16:55 | -4.43621 | -65.00577 | 34004 ft | 504 kts | 321° |
| 2026-05-06 16:55 | -4.38327 | -65.05145 | 34003 ft | 501 kts | 321° |
| 2026-05-06 16:56 | -4.33048 | -65.09701 | 34004 ft | 501 kts | 320° |
| 2026-05-06 16:56 | -4.27769 | -65.14258 | 34009 ft | 500 kts | 321° |
| 2026-05-06 16:57 | -4.22484 | -65.18801 | 34005 ft | 501 kts | 321° |
| 2026-05-06 16:57 | -4.17235 | -65.23328 | 34010 ft | 501 kts | 321° |
| 2026-05-06 16:58 | -4.11948 | -65.27890 | 34012 ft | 502 kts | 320° |
| 2026-05-06 16:58 | -4.06662 | -65.32450 | 34010 ft | 501 kts | 320° |
| 2026-05-06 16:59 | -4.01382 | -65.37004 | 34016 ft | 500 kts | 320° |
| 2026-05-06 16:59 | -3.96103 | -65.41554 | 34017 ft | 501 kts | 320° |
| 2026-05-06 17:00 | -3.91714 | -65.45338 | 34016 ft | 501 kts | 320° |
| 2026-05-06 17:00 | -3.86430 | -65.49892 | 34022 ft | 501 kts | 320° |
| 2026-05-06 17:01 | -3.81149 | -65.54443 | 34016 ft | 501 kts | 320° |
| 2026-05-06 17:01 | -3.75871 | -65.58990 | 34013 ft | 501 kts | 320° |
| 2026-05-06 17:02 | -3.70590 | -65.63540 | 34014 ft | 500 kts | 320° |
| 2026-05-06 17:02 | -3.65324 | -65.68075 | 34015 ft | 499 kts | 320° |
| 2026-05-06 17:03 | -3.60059 | -65.72609 | 34014 ft | 499 kts | 320° |
| 2026-05-06 17:03 | -3.54843 | -65.77195 | 34018 ft | 499 kts | 317° |
| 2026-05-06 17:04 | -3.49920 | -65.82101 | 34020 ft | 499 kts | 315° |
| 2026-05-06 17:04 | -3.45005 | -65.87021 | 34014 ft | 500 kts | 316° |
| 2026-05-06 17:05 | -3.40058 | -65.91939 | 34017 ft | 501 kts | 316° |
| 2026-05-06 17:05 | -3.35125 | -65.96874 | 34020 ft | 502 kts | 315° |
| 2026-05-06 17:06 | -3.30194 | -66.01810 | 34019 ft | 502 kts | 316° |
| 2026-05-06 17:06 | -3.25255 | -66.06750 | 34018 ft | 501 kts | 315° |
| 2026-05-06 17:07 | -3.20325 | -66.11682 | 34024 ft | 501 kts | 315° |
| 2026-05-06 17:07 | -3.15392 | -66.16617 | 34021 ft | 501 kts | 315° |
| 2026-05-06 17:08 | -3.10505 | -66.21506 | 34022 ft | 500 kts | 316° |
| 2026-05-06 17:08 | -3.05579 | -66.26430 | 34020 ft | 501 kts | 315° |
| 2026-05-06 17:09 | -3.00648 | -66.31361 | 34022 ft | 501 kts | 316° |
| 2026-05-06 17:09 | -2.95711 | -66.36298 | 34026 ft | 503 kts | 316° |
| 2026-05-06 17:10 | -2.90762 | -66.41244 | 34027 ft | 502 kts | 315° |
| 2026-05-06 17:10 | -2.85827 | -66.46178 | 34025 ft | 501 kts | 315° |
| 2026-05-06 17:11 | -2.80891 | -66.51110 | 34026 ft | 501 kts | 315° |
| 2026-05-06 17:11 | -2.75957 | -66.56041 | 34026 ft | 502 kts | 316° |
| 2026-05-06 17:12 | -2.71009 | -66.60983 | 34023 ft | 503 kts | 316° |
| 2026-05-06 17:12 | -2.66050 | -66.65935 | 34021 ft | 504 kts | 316° |
| 2026-05-06 17:13 | -2.61087 | -66.70878 | 34019 ft | 504 kts | 316° |
| 2026-05-06 17:13 | -2.56125 | -66.75830 | 34021 ft | 504 kts | 316° |
| 2026-05-06 17:14 | -2.51166 | -66.80781 | 34019 ft | 504 kts | 316° |
| 2026-05-06 17:14 | -2.46241 | -66.85696 | 34019 ft | 504 kts | 316° |
| 2026-05-06 17:15 | -2.41247 | -66.90679 | 34019 ft | 504 kts | 316° |
| 2026-05-06 17:15 | -2.36279 | -66.95637 | 34018 ft | 505 kts | 316° |
| 2026-05-06 17:16 | -2.31321 | -67.00608 | 34020 ft | 505 kts | 317° |
| 2026-05-06 17:16 | -2.26077 | -67.05184 | 34017 ft | 504 kts | 322° |
| 2026-05-06 17:17 | -2.20688 | -67.09654 | 34018 ft | 504 kts | 321° |
| 2026-05-06 17:17 | -2.15327 | -67.14167 | 34017 ft | 504 kts | 321° |
| 2026-05-06 17:18 | -2.09962 | -67.18674 | 34022 ft | 504 kts | 321° |
| 2026-05-06 17:18 | -2.04606 | -67.23173 | 34019 ft | 502 kts | 321° |
| 2026-05-06 17:19 | -1.99271 | -67.27655 | 34019 ft | 500 kts | 321° |
| 2026-05-06 17:19 | -1.93945 | -67.32129 | 34019 ft | 500 kts | 321° |
| 2026-05-06 17:20 | -1.88617 | -67.36603 | 34021 ft | 500 kts | 321° |
| 2026-05-06 17:20 | -1.83324 | -67.41049 | 34019 ft | 500 kts | 321° |
| 2026-05-06 17:21 | -1.77996 | -67.45523 | 34016 ft | 500 kts | 321° |
| 2026-05-06 17:21 | -1.72659 | -67.50005 | 34018 ft | 502 kts | 321° |
| 2026-05-06 17:22 | -1.67305 | -67.54502 | 34014 ft | 503 kts | 321° |
| 2026-05-06 17:22 | -1.61953 | -67.58998 | 34015 ft | 503 kts | 321° |
| 2026-05-06 17:23 | -1.56599 | -67.63495 | 34016 ft | 502 kts | 321° |
| 2026-05-06 17:23 | -1.51247 | -67.67990 | 34015 ft | 502 kts | 321° |
| 2026-05-06 17:24 | -1.45897 | -67.72484 | 34010 ft | 503 kts | 321° |
| 2026-05-06 17:24 | -1.40546 | -67.76979 | 34012 ft | 503 kts | 321° |
| 2026-05-06 17:25 | -1.35194 | -67.81474 | 34012 ft | 503 kts | 321° |
| 2026-05-06 17:25 | -1.29840 | -67.85973 | 34010 ft | 503 kts | 321° |
| 2026-05-06 17:26 | -1.24488 | -67.90469 | 34014 ft | 503 kts | 321° |
| 2026-05-06 17:26 | -1.19139 | -67.94963 | 34013 ft | 503 kts | 321° |
| 2026-05-06 17:27 | -1.13824 | -67.99429 | 34008 ft | 503 kts | 321° |
| 2026-05-06 17:27 | -1.08469 | -68.03929 | 34008 ft | 503 kts | 321° |
| 2026-05-06 17:28 | -1.03119 | -68.08426 | 34008 ft | 503 kts | 321° |
| 2026-05-06 17:28 | -0.97761 | -68.12929 | 34009 ft | 503 kts | 321° |
| 2026-05-06 17:29 | -0.92406 | -68.17429 | 34007 ft | 503 kts | 321° |
| 2026-05-06 17:29 | -0.87048 | -68.21933 | 34008 ft | 503 kts | 321° |
| 2026-05-06 17:30 | -0.81696 | -68.26431 | 34009 ft | 503 kts | 321° |
| 2026-05-06 17:30 | -0.76347 | -68.30928 | 34008 ft | 503 kts | 321° |
| 2026-05-06 17:31 | -0.70993 | -68.35428 | 34015 ft | 503 kts | 321° |
| 2026-05-06 17:31 | -0.65633 | -68.39936 | 34009 ft | 505 kts | 321° |
| 2026-05-06 17:32 | -0.60255 | -68.44458 | 34009 ft | 506 kts | 321° |
| 2026-05-06 17:32 | -0.54904 | -68.48958 | 34009 ft | 506 kts | 321° |
| 2026-05-06 17:33 | -0.49522 | -68.53484 | 34007 ft | 506 kts | 321° |
| 2026-05-06 17:33 | -0.44135 | -68.58016 | 34009 ft | 506 kts | 321° |
| 2026-05-06 17:34 | -0.38751 | -68.62546 | 34009 ft | 506 kts | 321° |
| 2026-05-06 17:34 | -0.33363 | -68.67079 | 34007 ft | 506 kts | 321° |
| 2026-05-06 17:35 | -0.27979 | -68.71610 | 34007 ft | 506 kts | 321° |
| 2026-05-06 17:35 | -0.22596 | -68.76141 | 34009 ft | 506 kts | 321° |
| 2026-05-06 17:36 | -0.14519 | -68.82940 | 34008 ft | 506 kts | 321° |
| 2026-05-06 17:36 | -0.09137 | -68.87471 | 34009 ft | 506 kts | 321° |
| 2026-05-06 17:37 | -0.03744 | -68.92013 | 34009 ft | 507 kts | 321° |
| 2026-05-06 17:37 | 0.01649 | -68.96556 | 34010 ft | 507 kts | 321° |
| 2026-05-06 17:38 | 0.07047 | -69.01103 | 34008 ft | 508 kts | 321° |
| 2026-05-06 17:38 | 0.12416 | -69.05626 | 34010 ft | 508 kts | 321° |
| 2026-05-06 17:39 | 0.17816 | -69.10178 | 34007 ft | 508 kts | 321° |
| 2026-05-06 17:39 | 0.23216 | -69.14730 | 34005 ft | 508 kts | 321° |
| 2026-05-06 17:40 | 0.28618 | -69.19285 | 34005 ft | 508 kts | 321° |
| 2026-05-06 17:40 | 0.34012 | -69.23833 | 34003 ft | 507 kts | 321° |
| 2026-05-06 17:41 | 0.39061 | -69.28763 | 34004 ft | 508 kts | 311° |
| 2026-05-06 17:41 | 0.43392 | -69.34356 | 34003 ft | 510 kts | 306° |
| 2026-05-06 17:42 | 0.47499 | -69.40131 | 34005 ft | 510 kts | 306° |
| 2026-05-06 17:42 | 0.51577 | -69.45935 | 34002 ft | 510 kts | 306° |
| 2026-05-06 17:43 | 0.55650 | -69.51737 | 34004 ft | 510 kts | 306° |
| 2026-05-06 17:43 | 0.59717 | -69.57545 | 34006 ft | 510 kts | 306° |
| 2026-05-06 17:44 | 0.63778 | -69.63360 | 34005 ft | 510 kts | 306° |
| 2026-05-06 17:44 | 0.68592 | -69.68470 | 33996 ft | 504 kts | 325° |
| 2026-05-06 17:45 | 0.74179 | -69.72735 | 34017 ft | 508 kts | 321° |
| 2026-05-06 17:45 | 0.79617 | -69.77242 | 34008 ft | 508 kts | 322° |
| 2026-05-06 17:46 | 0.85177 | -69.81536 | 34010 ft | 508 kts | 324° |
| 2026-05-06 17:46 | 0.90856 | -69.85820 | 34002 ft | 508 kts | 324° |
| 2026-05-06 17:47 | 0.96453 | -69.90049 | 34004 ft | 508 kts | 324° |
| 2026-05-06 17:47 | 1.02096 | -69.94299 | 34005 ft | 508 kts | 324° |
| 2026-05-06 17:48 | 1.07741 | -69.98546 | 34005 ft | 508 kts | 324° |
| 2026-05-06 17:48 | 1.13389 | -70.02796 | 34011 ft | 509 kts | 324° |
| 2026-05-06 17:49 | 1.19047 | -70.07051 | 34011 ft | 509 kts | 324° |
| 2026-05-06 17:49 | 1.24706 | -70.11308 | 34014 ft | 509 kts | 324° |
| 2026-05-06 17:50 | 1.30367 | -70.15567 | 34018 ft | 509 kts | 324° |
| 2026-05-06 17:50 | 1.35070 | -70.19106 | 34015 ft | 509 kts | 324° |
| 2026-05-06 17:51 | 1.40727 | -70.23363 | 33990 ft | 510 kts | 324° |
| 2026-05-06 17:51 | 1.46400 | -70.27629 | 33991 ft | 511 kts | 324° |
| 2026-05-06 17:52 | 1.52103 | -70.31920 | 33991 ft | 514 kts | 324° |
| 2026-05-06 17:52 | 1.57818 | -70.36223 | 33988 ft | 514 kts | 324° |
| 2026-05-06 17:53 | 1.63535 | -70.40525 | 33986 ft | 514 kts | 324° |
| 2026-05-06 17:53 | 1.69254 | -70.44829 | 33986 ft | 514 kts | 324° |
| 2026-05-06 17:54 | 1.74968 | -70.49131 | 33985 ft | 514 kts | 324° |
| 2026-05-06 17:54 | 1.80686 | -70.53435 | 33985 ft | 514 kts | 324° |
| 2026-05-06 17:55 | 1.86361 | -70.57707 | 33982 ft | 514 kts | 324° |
| 2026-05-06 17:55 | 1.92079 | -70.62011 | 33983 ft | 514 kts | 324° |
| 2026-05-06 17:56 | 1.97792 | -70.66313 | 33979 ft | 514 kts | 324° |
| 2026-05-06 17:56 | 2.03511 | -70.70619 | 33978 ft | 514 kts | 324° |
| 2026-05-06 17:57 | 2.09227 | -70.74923 | 33980 ft | 514 kts | 324° |
| 2026-05-06 17:57 | 2.14945 | -70.79230 | 33978 ft | 514 kts | 324° |
| 2026-05-06 17:58 | 2.20659 | -70.83532 | 33976 ft | 515 kts | 324° |
| 2026-05-06 17:58 | 2.26348 | -70.87889 | 33963 ft | 516 kts | 319° |
| 2026-05-06 17:59 | 2.28739 | -70.90547 | 33921 ft | 515 kts | 303° |
| 2026-05-06 17:59 | 2.30501 | -70.93647 | 33987 ft | 512 kts | 297° |
| 2026-05-06 17:59 | 2.34025 | -70.99891 | 33982 ft | 517 kts | 301° |
| 2026-05-06 18:00 | 2.37674 | -71.06090 | 33981 ft | 517 kts | 298° |
| 2026-05-06 18:00 | 2.41063 | -71.12438 | 33982 ft | 517 kts | 297° |
| 2026-05-06 18:01 | 2.44402 | -71.18810 | 33980 ft | 517 kts | 297° |
| 2026-05-06 18:01 | 2.47742 | -71.25186 | 33975 ft | 517 kts | 297° |
| 2026-05-06 18:02 | 2.51046 | -71.31522 | 33982 ft | 517 kts | 297° |
| 2026-05-06 18:02 | 2.54368 | -71.37899 | 33984 ft | 517 kts | 297° |
| 2026-05-06 18:03 | 2.57682 | -71.44263 | 33978 ft | 515 kts | 297° |
| 2026-05-06 18:03 | 2.60991 | -71.50618 | 33979 ft | 515 kts | 297° |
| 2026-05-06 18:04 | 2.64300 | -71.56974 | 33978 ft | 515 kts | 297° |
| 2026-05-06 18:04 | 2.67604 | -71.63323 | 33977 ft | 514 kts | 297° |
| 2026-05-06 18:05 | 2.70907 | -71.69669 | 33982 ft | 514 kts | 297° |
| 2026-05-06 18:05 | 2.74205 | -71.76008 | 33983 ft | 514 kts | 297° |
| 2026-05-06 18:06 | 2.77505 | -71.82352 | 33978 ft | 514 kts | 297° |
| 2026-05-06 18:06 | 2.80803 | -71.88695 | 33981 ft | 514 kts | 297° |
| 2026-05-06 18:07 | 2.84100 | -71.95034 | 33980 ft | 513 kts | 297° |
| 2026-05-06 18:07 | 2.87393 | -72.01368 | 33983 ft | 513 kts | 297° |
| 2026-05-06 18:08 | 2.90683 | -72.07696 | 33980 ft | 513 kts | 297° |
| 2026-05-06 18:08 | 2.93975 | -72.14028 | 33984 ft | 513 kts | 297° |
| 2026-05-06 18:09 | 2.97265 | -72.20359 | 33980 ft | 513 kts | 297° |
| 2026-05-06 18:09 | 3.00551 | -72.26683 | 33989 ft | 512 kts | 297° |
| 2026-05-06 18:10 | 3.03830 | -72.32994 | 33982 ft | 510 kts | 297° |
| 2026-05-06 18:10 | 3.07075 | -72.39243 | 33982 ft | 509 kts | 297° |
| 2026-05-06 18:11 | 3.10341 | -72.45531 | 33983 ft | 509 kts | 297° |
| 2026-05-06 18:11 | 3.13700 | -72.51761 | 33967 ft | 509 kts | 304° |
| 2026-05-06 18:12 | 3.18097 | -72.57296 | 33993 ft | 508 kts | 310° |
| 2026-05-06 18:12 | 3.22507 | -72.62834 | 33982 ft | 509 kts | 308° |
| 2026-05-06 18:13 | 3.26910 | -72.68367 | 33984 ft | 508 kts | 309° |
| 2026-05-06 18:13 | 3.31404 | -72.73826 | 33985 ft | 508 kts | 310° |
| 2026-05-06 18:14 | 3.35901 | -72.79277 | 33983 ft | 508 kts | 309° |
| 2026-05-06 18:14 | 3.40404 | -72.84734 | 33986 ft | 508 kts | 310° |
| 2026-05-06 18:15 | 3.44908 | -72.90186 | 33988 ft | 508 kts | 310° |
| 2026-05-06 18:15 | 3.49410 | -72.95636 | 33993 ft | 508 kts | 310° |
| 2026-05-06 18:16 | 3.53916 | -73.01092 | 33987 ft | 509 kts | 310° |
| 2026-05-06 18:16 | 3.58424 | -73.06551 | 33986 ft | 509 kts | 309° |
| 2026-05-06 18:17 | 3.62933 | -73.12011 | 33996 ft | 509 kts | 309° |
| 2026-05-06 18:17 | 3.67441 | -73.17472 | 33994 ft | 508 kts | 310° |
| 2026-05-06 18:18 | 3.71937 | -73.22919 | 33992 ft | 507 kts | 310° |
| 2026-05-06 18:18 | 3.76431 | -73.28362 | 33999 ft | 508 kts | 310° |
| 2026-05-06 18:19 | 3.80900 | -73.33777 | 34001 ft | 508 kts | 309° |
| 2026-05-06 18:19 | 3.85399 | -73.39230 | 34012 ft | 508 kts | 309° |
| 2026-05-06 18:20 | 3.89900 | -73.44687 | 34013 ft | 508 kts | 309° |
| 2026-05-06 18:20 | 3.94399 | -73.50141 | 34022 ft | 508 kts | 309° |
| 2026-05-06 18:21 | 3.98898 | -73.55598 | 34045 ft | 508 kts | 309° |
| 2026-05-06 18:21 | 4.03396 | -73.61052 | 34046 ft | 508 kts | 309° |
| 2026-05-06 18:22 | 4.07896 | -73.66513 | 34042 ft | 508 kts | 310° |
| 2026-05-06 18:22 | 4.12401 | -73.71979 | 34045 ft | 509 kts | 310° |
| 2026-05-06 18:23 | 4.16903 | -73.77441 | 34068 ft | 509 kts | 310° |
| 2026-05-06 18:23 | 4.21419 | -73.82922 | 34096 ft | 509 kts | 310° |
| 2026-05-06 18:24 | 4.25925 | -73.88393 | 34165 ft | 510 kts | 310° |
| 2026-05-06 18:24 | 4.30445 | -73.93882 | 34182 ft | 512 kts | 310° |
| 2026-05-06 18:25 | 4.34975 | -73.99385 | 34187 ft | 511 kts | 310° |
| 2026-05-06 18:25 | 4.39479 | -74.04858 | 34185 ft | 506 kts | 310° |
| 2026-05-06 18:26 | 4.43956 | -74.10299 | 34227 ft | 506 kts | 310° |
| 2026-05-06 18:26 | 4.48413 | -74.15715 | 34278 ft | 502 kts | 310° |
| 2026-05-06 18:27 | 4.52860 | -74.21119 | 34308 ft | 503 kts | 310° |
| 2026-05-06 18:27 | 4.57314 | -74.26535 | 34301 ft | 505 kts | 310° |
| 2026-05-06 18:28 | 4.61767 | -74.31978 | 34283 ft | 504 kts | 310° |
| 2026-05-06 18:28 | 4.66168 | -74.37462 | 34214 ft | 506 kts | 309° |
| 2026-05-06 18:29 | 4.70569 | -74.42932 | 34136 ft | 503 kts | 309° |
| 2026-05-06 18:29 | 4.74936 | -74.48347 | 34060 ft | 502 kts | 309° |
| 2026-05-06 18:30 | 4.79355 | -74.53827 | 33993 ft | 503 kts | 309° |
| 2026-05-06 18:30 | 4.83758 | -74.59290 | 33991 ft | 504 kts | 309° |
| 2026-05-06 18:31 | 4.88123 | -74.64711 | 33990 ft | 502 kts | 309° |
| 2026-05-06 18:31 | 4.92365 | -74.70254 | 33987 ft | 501 kts | 305° |
| 2026-05-06 18:32 | 4.96373 | -74.75970 | 33976 ft | 502 kts | 305° |
| 2026-05-06 18:32 | 5.00443 | -74.81680 | 33973 ft | 503 kts | 305° |
| 2026-05-06 18:33 | 5.04511 | -74.87397 | 33962 ft | 505 kts | 305° |
| 2026-05-06 18:33 | 5.06535 | -74.90254 | 34141 ft | 501 kts | 305° |
| 2026-05-06 18:33 | 5.08552 | -74.93101 | 34371 ft | 501 kts | 305° |
| 2026-05-06 18:34 | 5.10565 | -74.95942 | 34603 ft | 499 kts | 305° |
| 2026-05-06 18:34 | 5.12571 | -74.98772 | 34826 ft | 497 kts | 306° |
| 2026-05-06 18:34 | 5.14574 | -75.01595 | 35139 ft | 496 kts | 306° |
| 2026-05-06 18:34 | 5.16570 | -75.04410 | 35346 ft | 494 kts | 306° |
| 2026-05-06 18:35 | 5.18559 | -75.07216 | 35645 ft | 493 kts | 306° |
| 2026-05-06 18:35 | 5.20547 | -75.10018 | 35872 ft | 492 kts | 306° |
| 2026-05-06 18:35 | 5.22530 | -75.12815 | 35999 ft | 492 kts | 306° |
| 2026-05-06 18:35 | 5.24486 | -75.15574 | 36034 ft | 491 kts | 306° |
| 2026-05-06 18:36 | 5.28436 | -75.21147 | 36096 ft | 489 kts | 306° |
| 2026-05-06 18:36 | 5.32374 | -75.26711 | 36084 ft | 489 kts | 306° |
| 2026-05-06 18:37 | 5.35671 | -75.31369 | 36074 ft | 489 kts | 306° |
| 2026-05-06 18:37 | 5.40247 | -75.37835 | 36083 ft | 489 kts | 306° |
| 2026-05-06 18:38 | 5.44181 | -75.43398 | 36084 ft | 489 kts | 306° |
| 2026-05-06 18:38 | 5.48114 | -75.48960 | 36059 ft | 488 kts | 306° |
| 2026-05-06 18:39 | 5.52042 | -75.54515 | 36053 ft | 488 kts | 306° |
| 2026-05-06 18:40 | 5.57281 | -75.61926 | 36055 ft | 490 kts | 306° |
| 2026-05-06 18:40 | 5.61229 | -75.67511 | 36025 ft | 491 kts | 306° |
| 2026-05-06 18:41 | 5.65819 | -75.74010 | 36031 ft | 491 kts | 306° |
| 2026-05-06 18:41 | 5.69131 | -75.78700 | 36033 ft | 491 kts | 306° |
| 2026-05-06 18:42 | 5.73299 | -75.84118 | 36028 ft | 491 kts | 311° |
| 2026-05-06 18:42 | 5.77699 | -75.89357 | 36015 ft | 491 kts | 310° |
| 2026-05-06 18:43 | 5.82017 | -75.94605 | 36029 ft | 491 kts | 310° |
| 2026-05-06 18:43 | 5.86386 | -75.99878 | 36029 ft | 491 kts | 311° |
| 2026-05-06 18:44 | 5.90764 | -76.05143 | 36033 ft | 491 kts | 311° |
| 2026-05-06 18:44 | 5.95152 | -76.10418 | 36025 ft | 495 kts | 310° |
| 2026-05-06 18:45 | 5.99570 | -76.15732 | 36022 ft | 496 kts | 310° |
| 2026-05-06 18:45 | 6.03999 | -76.21068 | 36021 ft | 498 kts | 310° |
| 2026-05-06 18:46 | 6.08450 | -76.26415 | 36032 ft | 499 kts | 311° |
| 2026-05-06 18:46 | 6.12898 | -76.31766 | 36031 ft | 499 kts | 311° |
| 2026-05-06 18:47 | 6.17351 | -76.37125 | 35984 ft | 499 kts | 311° |
| 2026-05-06 18:47 | 6.21781 | -76.42458 | 35973 ft | 500 kts | 310° |
| 2026-05-06 18:48 | 6.26227 | -76.47814 | 36001 ft | 499 kts | 310° |
| 2026-05-06 18:48 | 6.30676 | -76.53169 | 35944 ft | 497 kts | 310° |
| 2026-05-06 18:49 | 6.35088 | -76.58487 | 35947 ft | 495 kts | 310° |
| 2026-05-06 18:49 | 6.39498 | -76.63806 | 35940 ft | 496 kts | 310° |
| 2026-05-06 18:50 | 6.43915 | -76.69130 | 35921 ft | 496 kts | 310° |
| 2026-05-06 18:50 | 6.48336 | -76.74463 | 35918 ft | 497 kts | 310° |
| 2026-05-06 18:51 | 6.52757 | -76.79797 | 35901 ft | 496 kts | 310° |
| 2026-05-06 18:51 | 6.57171 | -76.85124 | 35918 ft | 496 kts | 310° |
| 2026-05-06 18:52 | 6.61574 | -76.90440 | 35897 ft | 493 kts | 310° |
| 2026-05-06 18:52 | 6.65950 | -76.95721 | 35891 ft | 490 kts | 310° |
| 2026-05-06 18:53 | 6.70316 | -77.00993 | 35884 ft | 490 kts | 310° |
| 2026-05-06 18:53 | 6.74678 | -77.06263 | 35882 ft | 490 kts | 310° |
| 2026-05-06 18:54 | 6.79043 | -77.11539 | 35879 ft | 490 kts | 310° |
| 2026-05-06 18:54 | 6.83405 | -77.16812 | 35880 ft | 490 kts | 310° |
| 2026-05-06 18:55 | 6.87770 | -77.22090 | 35881 ft | 490 kts | 310° |
| 2026-05-06 18:55 | 6.92106 | -77.27336 | 35885 ft | 491 kts | 310° |
| 2026-05-06 18:56 | 6.96474 | -77.32622 | 35889 ft | 491 kts | 310° |
| 2026-05-06 18:56 | 7.00844 | -77.37911 | 35886 ft | 491 kts | 310° |
| 2026-05-06 18:57 | 7.05210 | -77.43198 | 35883 ft | 491 kts | 310° |
| 2026-05-06 18:57 | 7.09580 | -77.48492 | 35885 ft | 491 kts | 310° |
| 2026-05-06 18:58 | 7.13948 | -77.53783 | 35893 ft | 491 kts | 310° |
| 2026-05-06 18:58 | 7.18311 | -77.59072 | 35889 ft | 491 kts | 310° |
| 2026-05-06 18:59 | 7.22676 | -77.64364 | 35888 ft | 490 kts | 310° |
| 2026-05-06 18:59 | 7.27028 | -77.69643 | 35895 ft | 490 kts | 310° |
| 2026-05-06 19:00 | 7.31384 | -77.74927 | 35890 ft | 490 kts | 310° |
| 2026-05-06 19:00 | 7.35736 | -77.80209 | 35894 ft | 490 kts | 310° |
| 2026-05-06 19:01 | 7.40087 | -77.85497 | 35892 ft | 490 kts | 310° |
| 2026-05-06 19:01 | 7.44410 | -77.90812 | 35897 ft | 491 kts | 310° |
| 2026-05-06 19:02 | 7.48745 | -77.96144 | 35902 ft | 492 kts | 310° |
| 2026-05-06 19:02 | 7.53094 | -78.01467 | 35900 ft | 492 kts | 310° |
| 2026-05-06 19:03 | 7.57446 | -78.06790 | 35894 ft | 492 kts | 310° |
| 2026-05-06 19:03 | 7.61791 | -78.12110 | 35891 ft | 492 kts | 310° |
| 2026-05-06 19:04 | 7.66143 | -78.17439 | 35891 ft | 492 kts | 310° |
| 2026-05-06 19:04 | 7.70493 | -78.22762 | 35890 ft | 492 kts | 310° |
| 2026-05-06 19:05 | 7.74842 | -78.28089 | 35886 ft | 492 kts | 310° |
| 2026-05-06 19:05 | 7.79185 | -78.33415 | 35888 ft | 491 kts | 310° |
| 2026-05-06 19:06 | 7.83519 | -78.38730 | 35884 ft | 488 kts | 310° |
| 2026-05-06 19:06 | 7.87812 | -78.43996 | 35888 ft | 485 kts | 310° |
| 2026-05-06 19:07 | 7.92088 | -78.49243 | 35883 ft | 484 kts | 310° |
| 2026-05-06 19:07 | 7.96327 | -78.54445 | 35887 ft | 483 kts | 310° |
| 2026-05-06 19:08 | 8.00601 | -78.59693 | 35880 ft | 484 kts | 310° |
| 2026-05-06 19:08 | 8.04874 | -78.64940 | 35886 ft | 484 kts | 310° |
| 2026-05-06 19:09 | 8.09153 | -78.70201 | 35881 ft | 485 kts | 310° |
| 2026-05-06 19:09 | 8.13438 | -78.75467 | 35886 ft | 486 kts | 310° |
| 2026-05-06 19:10 | 8.17730 | -78.80742 | 35878 ft | 486 kts | 310° |
| 2026-05-06 19:10 | 8.22011 | -78.86007 | 35878 ft | 483 kts | 310° |
| 2026-05-06 19:11 | 8.26255 | -78.91231 | 35888 ft | 480 kts | 310° |
| 2026-05-06 19:11 | 8.30481 | -78.96434 | 35882 ft | 479 kts | 310° |
| 2026-05-06 19:12 | 8.34711 | -79.01642 | 35888 ft | 479 kts | 310° |
| 2026-05-06 19:12 | 8.38942 | -79.06853 | 35889 ft | 479 kts | 309° |
| 2026-05-06 19:13 | 8.43163 | -79.12056 | 35881 ft | 479 kts | 309° |
| 2026-05-06 19:13 | 8.47387 | -79.17265 | 35886 ft | 479 kts | 309° |
| 2026-05-06 19:14 | 8.51608 | -79.22471 | 35888 ft | 479 kts | 309° |
| 2026-05-06 19:14 | 8.55800 | -79.27643 | 35885 ft | 479 kts | 309° |
| 2026-05-06 19:15 | 8.60015 | -79.32845 | 35884 ft | 477 kts | 309° |
| 2026-05-06 19:15 | 8.64218 | -79.38034 | 35888 ft | 477 kts | 309° |
| 2026-05-06 19:16 | 8.68412 | -79.43215 | 35876 ft | 477 kts | 309° |
| 2026-05-06 19:16 | 8.72625 | -79.48419 | 35882 ft | 480 kts | 309° |
| 2026-05-06 19:17 | 8.76807 | -79.53694 | 35871 ft | 481 kts | 303° |
| 2026-05-06 19:17 | 8.78347 | -79.56685 | 35844 ft | 479 kts | 290° |
| 2026-05-06 19:17 | 8.79423 | -79.59867 | 35885 ft | 479 kts | 289° |
| 2026-05-06 19:18 | 8.81812 | -79.66170 | 35878 ft | 481 kts | 292° |
| 2026-05-06 19:18 | 8.84235 | -79.72486 | 35900 ft | 482 kts | 290° |
| 2026-05-06 19:19 | 8.86433 | -79.78881 | 35897 ft | 481 kts | 289° |
| 2026-05-06 19:19 | 8.88602 | -79.85284 | 35896 ft | 482 kts | 289° |
| 2026-05-06 19:20 | 8.90765 | -79.91688 | 35905 ft | 481 kts | 289° |
| 2026-05-06 19:20 | 8.92911 | -79.98072 | 35902 ft | 479 kts | 289° |
| 2026-05-06 19:21 | 8.95052 | -80.04454 | 35925 ft | 480 kts | 289° |
| 2026-05-06 19:21 | 8.97193 | -80.10845 | 35915 ft | 480 kts | 289° |
| 2026-05-06 19:22 | 8.99338 | -80.17245 | 35912 ft | 480 kts | 289° |
| 2026-05-06 19:22 | 9.01476 | -80.23630 | 35909 ft | 479 kts | 289° |
| 2026-05-06 19:23 | 9.03594 | -80.29959 | 35913 ft | 478 kts | 289° |
| 2026-05-06 19:23 | 9.05724 | -80.36332 | 35906 ft | 478 kts | 289° |
| 2026-05-06 19:24 | 9.07855 | -80.42711 | 35909 ft | 480 kts | 289° |
| 2026-05-06 19:24 | 9.09991 | -80.49110 | 35914 ft | 479 kts | 289° |
| 2026-05-06 19:25 | 9.12122 | -80.55497 | 35900 ft | 479 kts | 289° |
| 2026-05-06 19:25 | 9.14251 | -80.61885 | 35908 ft | 480 kts | 289° |
| 2026-05-06 19:26 | 9.16383 | -80.68282 | 35907 ft | 480 kts | 289° |
| 2026-05-06 19:26 | 9.18517 | -80.74691 | 35910 ft | 481 kts | 289° |
| 2026-05-06 19:27 | 9.20650 | -80.81101 | 35919 ft | 480 kts | 289° |
| 2026-05-06 19:27 | 9.22781 | -80.87508 | 35915 ft | 480 kts | 289° |
| 2026-05-06 19:28 | 9.24908 | -80.93906 | 35907 ft | 480 kts | 289° |
| 2026-05-06 19:28 | 9.26650 | -80.99246 | 35909 ft | 481 kts | 287° |
| 2026-05-06 19:29 | 9.28779 | -81.05662 | 35918 ft | 481 kts | 290° |
| 2026-05-06 19:29 | 9.31106 | -81.12012 | 35918 ft | 481 kts | 290° |
| 2026-05-06 19:30 | 9.33726 | -81.19418 | 35919 ft | 481 kts | 290° |
| 2026-05-06 19:30 | 9.35601 | -81.24756 | 35910 ft | 481 kts | 289° |
| 2026-05-06 19:31 | 9.37844 | -81.31130 | 35928 ft | 481 kts | 289° |
| 2026-05-06 19:31 | 9.41209 | -81.40718 | 35918 ft | 482 kts | 289° |
| 2026-05-06 19:32 | 9.43437 | -81.47070 | 35913 ft | 482 kts | 289° |
| 2026-05-06 19:32 | 9.45680 | -81.53468 | 35931 ft | 482 kts | 289° |
| 2026-05-06 19:33 | 9.47922 | -81.59869 | 35921 ft | 482 kts | 289° |
| 2026-05-06 19:33 | 9.50161 | -81.66268 | 35918 ft | 482 kts | 289° |
| 2026-05-06 19:34 | 9.52402 | -81.72673 | 35909 ft | 483 kts | 289° |
| 2026-05-06 19:34 | 9.54642 | -81.79081 | 35925 ft | 483 kts | 289° |
| 2026-05-06 19:35 | 9.56885 | -81.85501 | 35914 ft | 483 kts | 289° |
| 2026-05-06 19:35 | 9.59124 | -81.91916 | 35927 ft | 483 kts | 289° |
| 2026-05-06 19:36 | 9.61361 | -81.98327 | 35910 ft | 483 kts | 289° |
| 2026-05-06 19:36 | 9.63598 | -82.04743 | 35914 ft | 483 kts | 289° |
| 2026-05-06 19:37 | 9.65834 | -82.11162 | 35928 ft | 483 kts | 289° |
| 2026-05-06 19:37 | 9.68067 | -82.17574 | 35929 ft | 483 kts | 289° |
| 2026-05-06 19:38 | 9.70301 | -82.23993 | 35927 ft | 483 kts | 289° |
| 2026-05-06 19:38 | 9.72533 | -82.30411 | 35927 ft | 483 kts | 289° |
| 2026-05-06 19:39 | 9.74764 | -82.36832 | 35912 ft | 483 kts | 289° |
| 2026-05-06 19:39 | 9.76990 | -82.43240 | 35913 ft | 481 kts | 289° |
| 2026-05-06 19:40 | 9.79209 | -82.49636 | 35925 ft | 481 kts | 289° |
| 2026-05-06 19:40 | 9.81420 | -82.56028 | 35912 ft | 481 kts | 289° |
| 2026-05-06 19:41 | 9.83509 | -82.62466 | 35914 ft | 481 kts | 287° |
| 2026-05-06 19:41 | 9.85554 | -82.68917 | 35925 ft | 481 kts | 288° |
| 2026-05-06 19:42 | 9.87626 | -82.75356 | 35930 ft | 481 kts | 288° |
| 2026-05-06 19:42 | 9.89701 | -82.81804 | 35933 ft | 480 kts | 288° |
| 2026-05-06 19:43 | 9.91770 | -82.88242 | 35944 ft | 480 kts | 288° |
| 2026-05-06 19:43 | 9.93841 | -82.94688 | 35967 ft | 480 kts | 288° |
| 2026-05-06 19:44 | 9.96065 | -83.01037 | 35925 ft | 482 kts | 297° |
| 2026-05-06 19:44 | 9.99679 | -83.06724 | 35973 ft | 481 kts | 303° |
| 2026-05-06 19:45 | 10.03259 | -83.12511 | 35944 ft | 482 kts | 301° |
| 2026-05-06 19:45 | 10.06862 | -83.18193 | 35955 ft | 482 kts | 303° |
| 2026-05-06 19:46 | 10.10606 | -83.23824 | 35943 ft | 482 kts | 304° |
| 2026-05-06 19:46 | 10.14358 | -83.29454 | 35923 ft | 480 kts | 303° |
| 2026-05-06 19:47 | 10.18098 | -83.35058 | 35938 ft | 479 kts | 303° |
| 2026-05-06 19:47 | 10.21844 | -83.40662 | 35916 ft | 480 kts | 303° |
| 2026-05-06 19:48 | 10.25593 | -83.46274 | 35934 ft | 480 kts | 303° |
| 2026-05-06 19:48 | 10.29331 | -83.51871 | 35920 ft | 478 kts | 303° |
| 2026-05-06 19:49 | 10.33062 | -83.57458 | 35911 ft | 477 kts | 303° |
| 2026-05-06 19:49 | 10.36788 | -83.63041 | 35902 ft | 479 kts | 304° |
| 2026-05-06 19:50 | 10.40531 | -83.68654 | 35915 ft | 480 kts | 303° |
| 2026-05-06 19:50 | 10.44261 | -83.74249 | 35932 ft | 478 kts | 303° |
| 2026-05-06 19:51 | 10.48014 | -83.79832 | 35907 ft | 480 kts | 306° |
| 2026-05-06 19:51 | 10.52246 | -83.85097 | 35902 ft | 481 kts | 310° |
| 2026-05-06 19:52 | 10.56574 | -83.90264 | 35928 ft | 480 kts | 309° |
| 2026-05-06 19:52 | 10.60872 | -83.95459 | 35926 ft | 480 kts | 310° |
| 2026-05-06 19:53 | 10.65196 | -84.00632 | 35922 ft | 481 kts | 310° |
| 2026-05-06 19:53 | 10.69523 | -84.05819 | 35915 ft | 481 kts | 309° |
| 2026-05-06 19:54 | 10.73599 | -84.11226 | 35922 ft | 483 kts | 306° |
| 2026-05-06 19:54 | 10.77563 | -84.16661 | 35901 ft | 481 kts | 306° |
| 2026-05-06 19:55 | 10.81579 | -84.22100 | 35925 ft | 481 kts | 306° |
| 2026-05-06 19:55 | 10.85578 | -84.27540 | 35906 ft | 479 kts | 306° |
| 2026-05-06 19:56 | 10.89571 | -84.32982 | 35905 ft | 481 kts | 306° |
| 2026-05-06 19:56 | 10.93579 | -84.38444 | 35899 ft | 482 kts | 306° |
| 2026-05-06 19:57 | 10.97587 | -84.43909 | 35919 ft | 482 kts | 306° |
| 2026-05-06 19:57 | 11.01602 | -84.49387 | 35901 ft | 483 kts | 306° |
| 2026-05-06 19:58 | 11.05606 | -84.54872 | 35893 ft | 482 kts | 306° |
| 2026-05-06 19:58 | 11.09433 | -84.60476 | 35915 ft | 482 kts | 304° |
| 2026-05-06 19:59 | 11.13213 | -84.66112 | 35895 ft | 481 kts | 304° |
| 2026-05-06 19:59 | 11.16987 | -84.71690 | 35890 ft | 483 kts | 304° |
| 2026-05-06 20:00 | 11.20802 | -84.77341 | 35854 ft | 486 kts | 304° |
| 2026-05-06 20:00 | 11.22712 | -84.80175 | 35452 ft | 484 kts | 304° |
| 2026-05-06 20:00 | 11.24606 | -84.82987 | 34858 ft | 478 kts | 304° |
| 2026-05-06 20:01 | 11.26478 | -84.85766 | 34276 ft | 474 kts | 304° |
| 2026-05-06 20:01 | 11.28341 | -84.88531 | 33729 ft | 473 kts | 304° |
| 2026-05-06 20:01 | 11.30204 | -84.91297 | 33074 ft | 475 kts | 304° |
| 2026-05-06 20:01 | 11.32080 | -84.94084 | 32455 ft | 479 kts | 305° |
| 2026-05-06 20:02 | 11.33967 | -84.96887 | 31964 ft | 482 kts | 305° |
| 2026-05-06 20:02 | 11.35870 | -84.99713 | 31486 ft | 486 kts | 306° |
| 2026-05-06 20:02 | 11.37791 | -85.02564 | 31026 ft | 490 kts | 306° |
| 2026-05-06 20:02 | 11.39728 | -85.05438 | 30560 ft | 493 kts | 305° |
| 2026-05-06 20:03 | 11.41668 | -85.08324 | 30114 ft | 495 kts | 305° |
| 2026-05-06 20:03 | 11.43615 | -85.11223 | 29610 ft | 497 kts | 305° |
| 2026-05-06 20:03 | 11.45572 | -85.14134 | 29077 ft | 499 kts | 305° |
| 2026-05-06 20:03 | 11.47535 | -85.17054 | 28586 ft | 501 kts | 306° |
| 2026-05-06 20:04 | 11.49496 | -85.19972 | 28094 ft | 494 kts | 306° |
| 2026-05-06 20:04 | 11.51415 | -85.22832 | 27652 ft | 485 kts | 306° |
| 2026-05-06 20:04 | 11.53309 | -85.25656 | 27218 ft | 481 kts | 306° |
| 2026-05-06 20:04 | 11.55195 | -85.28467 | 26780 ft | 478 kts | 306° |
| 2026-05-06 20:05 | 11.57070 | -85.31261 | 26340 ft | 476 kts | 306° |
| 2026-05-06 20:05 | 11.58937 | -85.34043 | 25926 ft | 474 kts | 306° |
| 2026-05-06 20:05 | 11.60795 | -85.36813 | 25467 ft | 472 kts | 306° |
| 2026-05-06 20:05 | 11.62645 | -85.39573 | 25013 ft | 470 kts | 307° |
| 2026-05-06 20:06 | 11.64486 | -85.42320 | 24564 ft | 468 kts | 307° |
| 2026-05-06 20:06 | 11.66318 | -85.45054 | 24124 ft | 466 kts | 307° |
| 2026-05-06 20:06 | 11.68144 | -85.47778 | 23690 ft | 465 kts | 307° |
| 2026-05-06 20:06 | 11.69964 | -85.50495 | 23216 ft | 463 kts | 307° |
| 2026-05-06 20:07 | 11.71776 | -85.53199 | 22696 ft | 460 kts | 307° |
| 2026-05-06 20:07 | 11.73577 | -85.55889 | 22121 ft | 457 kts | 307° |
| 2026-05-06 20:07 | 11.75360 | -85.58552 | 21495 ft | 453 kts | 307° |
| 2026-05-06 20:07 | 11.77124 | -85.61192 | 20876 ft | 448 kts | 307° |
| 2026-05-06 20:08 | 11.78849 | -85.63771 | 20181 ft | 444 kts | 307° |
| 2026-05-06 20:08 | 11.80575 | -85.66355 | 19477 ft | 438 kts | 306° |
| 2026-05-06 20:08 | 11.82281 | -85.68909 | 18806 ft | 432 kts | 306° |
| 2026-05-06 20:08 | 11.83965 | -85.71429 | 18138 ft | 427 kts | 306° |
| 2026-05-06 20:09 | 11.85629 | -85.73922 | 17378 ft | 422 kts | 306° |
| 2026-05-06 20:09 | 11.87272 | -85.76385 | 16640 ft | 417 kts | 306° |
| 2026-05-06 20:09 | 11.88893 | -85.78816 | 15910 ft | 411 kts | 306° |
| 2026-05-06 20:09 | 11.90493 | -85.81214 | 15177 ft | 406 kts | 306° |
| 2026-05-06 20:10 | 11.92071 | -85.83579 | 14500 ft | 400 kts | 306° |
| 2026-05-06 20:10 | 11.93627 | -85.85914 | 13822 ft | 395 kts | 306° |
| 2026-05-06 20:10 | 11.95163 | -85.88222 | 13082 ft | 390 kts | 306° |
| 2026-05-06 20:10 | 11.96684 | -85.90500 | 12335 ft | 386 kts | 306° |
| 2026-05-06 20:11 | 11.98195 | -85.92748 | 11622 ft | 381 kts | 306° |
| 2026-05-06 20:11 | 11.99679 | -85.94945 | 10904 ft | 370 kts | 306° |
| 2026-05-06 20:11 | 12.01108 | -85.97057 | 10206 ft | 350 kts | 306° |
| 2026-05-06 20:11 | 12.02418 | -85.99006 | 10027 ft | 315 kts | 306° |
| 2026-05-06 20:12 | 12.03600 | -86.00794 | 9939 ft | 298 kts | 306° |
| 2026-05-06 20:12 | 12.04758 | -86.02557 | 9573 ft | 298 kts | 306° |
| 2026-05-06 20:12 | 12.05908 | -86.04312 | 9132 ft | 296 kts | 306° |
| 2026-05-06 20:12 | 12.07049 | -86.06055 | 8687 ft | 294 kts | 306° |
| 2026-05-06 20:13 | 12.08180 | -86.07785 | 8210 ft | 292 kts | 306° |
| 2026-05-06 20:13 | 12.09304 | -86.09498 | 7724 ft | 289 kts | 306° |
| 2026-05-06 20:13 | 12.10418 | -86.11196 | 7251 ft | 287 kts | 306° |
| 2026-05-06 20:13 | 12.11460 | -86.12924 | 6778 ft | 285 kts | 301° |
| 2026-05-06 20:14 | 12.12386 | -86.14676 | 6323 ft | 283 kts | 301° |
| 2026-05-06 20:14 | 12.13348 | -86.16403 | 5785 ft | 272 kts | 304° |
| 2026-05-06 20:14 | 12.14328 | -86.17981 | 5209 ft | 254 kts | 304° |
| 2026-05-06 20:14 | 12.15120 | -86.19535 | 4732 ft | 236 kts | 300° |
| 2026-05-06 20:15 | 12.15900 | -86.20946 | 4536 ft | 221 kts | 304° |
| 2026-05-06 20:15 | 12.16659 | -86.22267 | 4273 ft | 212 kts | 303° |
| 2026-05-06 20:15 | 12.17373 | -86.23547 | 4090 ft | 204 kts | 302° |
| 2026-05-06 20:15 | 12.18074 | -86.24811 | 4026 ft | 206 kts | 302° |
| 2026-05-06 20:16 | 12.18787 | -86.26097 | 4021 ft | 209 kts | 303° |
| 2026-05-06 20:16 | 12.19509 | -86.27399 | 4004 ft | 211 kts | 302° |
| 2026-05-06 20:16 | 12.20233 | -86.28703 | 3978 ft | 211 kts | 303° |
| 2026-05-06 20:16 | 12.20905 | -86.30041 | 3966 ft | 216 kts | 290° |
| 2026-05-06 20:17 | 12.20901 | -86.31565 | 3925 ft | 217 kts | 252° |
| 2026-05-06 20:17 | 12.20062 | -86.32794 | 3942 ft | 212 kts | 215° |
| 2026-05-06 20:17 | 12.19192 | -86.33245 | 3770 ft | 216 kts | 193° |
| 2026-05-06 20:17 | 12.17194 | -86.33092 | 3357 ft | 219 kts | 158° |
| 2026-05-06 20:18 | 12.16274 | -86.32718 | 3124 ft | 211 kts | 150° |
| 2026-05-06 20:18 | 12.15221 | -86.31774 | 2642 ft | 198 kts | 118° |
| 2026-05-06 20:18 | 12.14674 | -86.30535 | 2370 ft | 187 kts | 110° |
| 2026-05-06 20:18 | 12.14478 | -86.29266 | 2179 ft | 174 kts | 91° |
| 2026-05-06 20:19 | 12.14628 | -86.28121 | 2137 ft | 152 kts | 79° |
| 2026-05-06 20:19 | 12.14824 | -86.27090 | 1979 ft | 143 kts | 82° |
| 2026-05-06 20:19 | 12.14940 | -86.26084 | 1798 ft | 145 kts | 84° |
| 2026-05-06 20:19 | 12.15010 | -86.25062 | 1666 ft | 145 kts | 90° |
| 2026-05-06 20:20 | 12.14947 | -86.23995 | 1494 ft | 154 kts | 96° |
| 2026-05-06 20:20 | 12.14833 | -86.22915 | 1280 ft | 146 kts | 96° |
| 2026-05-06 20:20 | 12.14725 | -86.21919 | 1019 ft | 136 kts | 96° |
| 2026-05-06 20:20 | 12.14624 | -86.20980 | 832 ft | 133 kts | 96° |
| 2026-05-06 20:21 | 12.14506 | -86.20004 | 657 ft | 143 kts | 95° |
| 2026-05-06 20:21 | 12.14406 | -86.18989 | 475 ft | 144 kts | 99° |
| 2026-05-06 20:21 | 12.14289 | -86.17997 | 262 ft | 138 kts | 97° |
| 2026-05-06 20:21 | 12.14187 | -86.17105 | 206 ft | 108 kts | 97° |
| 2026-05-06 20:22 | 12.14132 | -86.16640 | 205 ft | 38 kts | 96° |
| 2026-05-06 20:22 | 12.14103 | -86.16376 | 207 ft | 36 kts | 96° |
| 2026-05-06 20:22 | 12.14078 | -86.16158 | 203 ft | 29 kts | 97° |
| 2026-05-06 20:22 | 12.14055 | -86.15948 | 209 ft | 30 kts | 95° |
| 2026-05-06 20:23 | 12.14054 | -86.15838 | 209 ft | 5 kts | 86° |
| 2026-05-06 20:23 | 12.14042 | -86.15831 | 216 ft | 1 kts | 176° |
| 2026-05-06 20:23 | 12.14037 | -86.15836 | 216 ft | 1 kts | 222° |
| 2026-05-06 20:23 | 12.14037 | -86.15845 | 217 ft | 2 kts | 269° |
| 2026-05-06 20:24 | 12.14041 | -86.15881 | 217 ft | 8 kts | 278° |
| 2026-05-06 20:24 | 12.14055 | -86.15962 | 209 ft | 15 kts | 280° |
| 2026-05-06 20:24 | 12.14073 | -86.16084 | 202 ft | 19 kts | 278° |
| 2026-05-06 20:24 | 12.14091 | -86.16230 | 215 ft | 23 kts | 277° |
| 2026-05-06 20:25 | 12.14109 | -86.16403 | 209 ft | 27 kts | 275° |
| 2026-05-06 20:25 | 12.14129 | -86.16549 | 205 ft | 13 kts | 291° |
| 2026-05-06 20:25 | 12.14208 | -86.16613 | 213 ft | 16 kts | 336° |
| 2026-05-06 20:25 | 12.14272 | -86.16667 | 209 ft | 13 kts | 286° |
| 2026-05-06 20:26 | 12.14289 | -86.16776 | 201 ft | 18 kts | 276° |
| 2026-05-06 20:26 | 12.14303 | -86.16914 | 212 ft | 21 kts | 276° |
| 2026-05-06 20:26 | 12.14319 | -86.17070 | 206 ft | 15 kts | 278° |
| 2026-05-06 20:26 | 12.14324 | -86.17101 | 204 ft | 5 kts | 278° |
| 2026-05-06 20:27 | 12.14333 | -86.17136 | 207 ft | 5 kts | 308° |
| 2026-05-06 20:27 | 12.14363 | -86.17144 | 213 ft | 4 kts | 354° |
| 2026-05-06 20:27 | 12.14384 | -86.17145 | 206 ft | 3 kts | 1° |
| 2026-05-06 20:27 | 12.14390 | -86.17144 | 205 ft | 0 kts | 4° |